<?xml version="1.0" encoding="UTF-8" standalone="no" ?>
<gpx xmlns="http://www.topografix.com/GPX/1/1" xmlns:xsi="http://www.w3.org/2001/XMLSchema-instance" xsi:schemaLocation="http://www.topografix.com/GPX/1/1 http://www.topografix.com/GPX/1/1/gpx.xsd" version="1.1" creator="VisuGPX - https://www.visugpx.com">
  <metadata>
    <name>Viaduc de Millau et Causse du Larzac – boucle dans le Parc naturel régional des Grands Causses</name>
    <desc><![CDATA[Viaduc de Millau et Causse du Larzac – boucle dans le Parc naturel régional des Grands Causses]]></desc>
  </metadata>
  <trk>
    <name><![CDATA[Viaduc de Millau et Causse du Larzac – boucle dans le Parc naturel régional des Grands Causses_1]]></name>
    <desc><![CDATA[]]></desc>
    <trkseg>
      <trkpt lat="44.0853" lon="3.06171">
        <ele>378.5</ele>
        <extensions>
          <visugpx:TrkExtension xmlns:visugpx="https://www.visugpx.com/editgpx/">
            <visugpx:node>13</visugpx:node>
            </visugpx:TrkExtension>
        </extensions>
      </trkpt>
      <trkpt lat="44.0854" lon="3.06153">
        <ele>377.7</ele>
        <extensions>
          <visugpx:TrkExtension xmlns:visugpx="https://www.visugpx.com/editgpx/">
            <visugpx:node>14</visugpx:node>
            </visugpx:TrkExtension>
        </extensions>
      </trkpt>
      <trkpt lat="44.0854" lon="3.06128">
        <ele>376.6</ele>
        <time>2026-02-05T16:27:35.045Z</time>
        <extensions>
          <visugpx:TrkExtension xmlns:visugpx="https://www.visugpx.com/editgpx/">
            <visugpx:node>15</visugpx:node>
            </visugpx:TrkExtension>
        </extensions>
      </trkpt>
      <trkpt lat="44.0854" lon="3.06128">
        <ele>376.6</ele>
        <time>2026-02-05T16:27:35.045Z</time>
        <extensions>
          <visugpx:TrkExtension xmlns:visugpx="https://www.visugpx.com/editgpx/">
            <visugpx:node>15</visugpx:node>
            </visugpx:TrkExtension>
        </extensions>
      </trkpt>
      <trkpt lat="44.08547" lon="3.06122">
        <ele>379.691493</ele>
        <time>2026-02-05T16:27:32.368Z</time>
      </trkpt>
      <trkpt lat="44.08555" lon="3.06118">
        <ele>379.691493</ele>
        <time>2026-02-05T16:27:29.539Z</time>
      </trkpt>
      <trkpt lat="44.08559" lon="3.06113">
        <ele>379.691493</ele>
        <time>2026-02-05T16:27:27.549Z</time>
      </trkpt>
      <trkpt lat="44.08561" lon="3.06049">
        <ele>378.956391</ele>
        <time>2026-02-05T16:27:09.669Z</time>
      </trkpt>
      <trkpt lat="44.08561" lon="3.06042">
        <ele>378.748697</ele>
        <time>2026-02-05T16:27:07.570Z</time>
      </trkpt>
      <trkpt lat="44.08565" lon="3.06032">
        <ele>378.390395</ele>
        <time>2026-02-05T16:27:03.874Z</time>
      </trkpt>
      <trkpt lat="44.08582" lon="3.06022">
        <ele>377.625831</ele>
        <time>2026-02-05T16:26:56.493Z</time>
      </trkpt>
      <trkpt lat="44.08587" lon="3.06017">
        <ele>377.366731</ele>
        <time>2026-02-05T16:26:53.762Z</time>
      </trkpt>
      <trkpt lat="44.08579" lon="3.05996">
        <ele>376.649115</ele>
        <time>2026-02-05T16:26:46.031Z</time>
      </trkpt>
      <trkpt lat="44.08585" lon="3.05981">
        <ele>376.10762</ele>
        <time>2026-02-05T16:26:40.207Z</time>
      </trkpt>
      <trkpt lat="44.08601" lon="3.0596">
        <ele>375.20039</ele>
        <time>2026-02-05T16:26:31.374Z</time>
      </trkpt>
      <trkpt lat="44.08613" lon="3.0595">
        <ele>374.596593</ele>
        <time>2026-02-05T16:26:25.725Z</time>
      </trkpt>
      <trkpt lat="44.08634" lon="3.05934">
        <ele>373.557941</ele>
        <time>2026-02-05T16:26:16.080Z</time>
      </trkpt>
      <trkpt lat="44.08637" lon="3.05929">
        <ele>373.39433</ele>
        <time>2026-02-05T16:26:14.440Z</time>
      </trkpt>
      <trkpt lat="44.08631" lon="3.05896">
        <ele>372.344515</ele>
        <time>2026-02-05T16:26:03.075Z</time>
      </trkpt>
      <trkpt lat="44.08615" lon="3.05842">
        <ele>371.271543</ele>
        <time>2026-02-05T16:25:39.840Z</time>
      </trkpt>
      <trkpt lat="44.08603" lon="3.05817">
        <ele>370.787789</ele>
        <time>2026-02-05T16:25:28.958Z</time>
      </trkpt>
      <trkpt lat="44.08573" lon="3.05736">
        <ele>369.32353</ele>
        <time>2026-02-05T16:25:00.376Z</time>
      </trkpt>
      <trkpt lat="44.0857" lon="3.05725">
        <ele>369.130254</ele>
        <time>2026-02-05T16:24:57.320Z</time>
      </trkpt>
      <trkpt lat="44.08569" lon="3.0572">
        <ele>369.042342</ele>
        <time>2026-02-05T16:24:55.330Z</time>
      </trkpt>
      <trkpt lat="44.08567" lon="3.057">
        <ele>368.714523</ele>
        <time>2026-02-05T16:24:50.230Z</time>
      </trkpt>
      <trkpt lat="44.08556" lon="3.05596">
        <ele>368.557739</ele>
        <time>2026-02-05T16:24:27.351Z</time>
      </trkpt>
      <trkpt lat="44.08529" lon="3.0546">
        <ele>369.789706</ele>
        <time>2026-02-05T16:23:58.762Z</time>
      </trkpt>
      <trkpt lat="44.08529" lon="3.05366">
        <ele>369.955913</ele>
        <time>2026-02-05T16:23:40.108Z</time>
      </trkpt>
      <trkpt lat="44.08533" lon="3.05325">
        <ele>369.738997</ele>
        <time>2026-02-05T16:23:31.652Z</time>
      </trkpt>
      <trkpt lat="44.08541" lon="3.05278">
        <ele>369.479491</ele>
        <time>2026-02-05T16:23:21.213Z</time>
      </trkpt>
      <trkpt lat="44.08569" lon="3.05174">
        <ele>368.894716</ele>
        <time>2026-02-05T16:22:44.137Z</time>
      </trkpt>
      <trkpt lat="44.08606" lon="3.05094">
        <ele>366.842978</ele>
        <time>2026-02-05T16:22:09.026Z</time>
      </trkpt>
      <trkpt lat="44.08639" lon="3.05049">
        <ele>365.426558</ele>
        <time>2026-02-05T16:21:45.085Z</time>
      </trkpt>
      <trkpt lat="44.08642" lon="3.05045">
        <ele>365.295926</ele>
        <time>2026-02-05T16:21:43.188Z</time>
      </trkpt>
      <trkpt lat="44.08647" lon="3.05036">
        <ele>365.054082</ele>
        <time>2026-02-05T16:21:39.478Z</time>
      </trkpt>
      <trkpt lat="44.08654" lon="3.05024">
        <ele>364.716285</ele>
        <time>2026-02-05T16:21:34.297Z</time>
      </trkpt>
      <trkpt lat="44.08662" lon="3.05004">
        <ele>364.203211</ele>
        <time>2026-02-05T16:21:26.269Z</time>
      </trkpt>
      <trkpt lat="44.0867" lon="3.0497">
        <ele>363.419998</ele>
        <time>2026-02-05T16:21:15.289Z</time>
      </trkpt>
      <trkpt lat="44.08676" lon="3.04961">
        <ele>363.617047</ele>
        <time>2026-02-05T16:21:11.236Z</time>
      </trkpt>
      <trkpt lat="44.08704" lon="3.04938">
        <ele>364.849985</ele>
        <time>2026-02-05T16:20:58.978Z</time>
      </trkpt>
      <trkpt lat="44.08774" lon="3.0486">
        <ele>368.278963</ele>
        <time>2026-02-05T16:20:35.429Z</time>
      </trkpt>
      <trkpt lat="44.08836" lon="3.04816">
        <ele>372.076207</ele>
        <time>2026-02-05T16:20:20.401Z</time>
      </trkpt>
      <trkpt lat="44.08886" lon="3.04786">
        <ele>377.369818</ele>
        <time>2026-02-05T16:20:09.011Z</time>
      </trkpt>
      <trkpt lat="44.08899" lon="3.04782">
        <ele>378.749899</ele>
        <time>2026-02-05T16:20:05.932Z</time>
      </trkpt>
      <trkpt lat="44.08915" lon="3.04772">
        <ele>380.471416</ele>
        <time>2026-02-05T16:20:02.274Z</time>
      </trkpt>
      <trkpt lat="44.08905" lon="3.04744">
        <ele>382.69822</ele>
        <time>2026-02-05T16:19:59.346Z</time>
      </trkpt>
      <trkpt lat="44.08914" lon="3.0473">
        <ele>384.017619</ele>
        <time>2026-02-05T16:19:57.688Z</time>
      </trkpt>
      <trkpt lat="44.08917" lon="3.04718">
        <ele>384.900925</ele>
        <time>2026-02-05T16:19:56.499Z</time>
      </trkpt>
      <trkpt lat="44.08917" lon="3.04709">
        <ele>385.564304</ele>
        <time>2026-02-05T16:19:55.621Z</time>
      </trkpt>
      <trkpt lat="44.08909" lon="3.04648">
        <ele>389.064568</ele>
        <time>2026-02-05T16:19:49.823Z</time>
      </trkpt>
      <trkpt lat="44.08904" lon="3.04618">
        <ele>390.309591</ele>
        <time>2026-02-05T16:19:46.957Z</time>
      </trkpt>
      <trkpt lat="44.08894" lon="3.0459">
        <ele>391.559045</ele>
        <time>2026-02-05T16:19:44.075Z</time>
      </trkpt>
      <trkpt lat="44.08874" lon="3.04552">
        <ele>393.487099</ele>
        <time>2026-02-05T16:19:39.466Z</time>
      </trkpt>
      <trkpt lat="44.08871" lon="3.0454">
        <ele>393.989944</ele>
        <time>2026-02-05T16:19:38.231Z</time>
      </trkpt>
      <trkpt lat="44.08872" lon="3.04526">
        <ele>394.544822</ele>
        <time>2026-02-05T16:19:36.708Z</time>
      </trkpt>
      <trkpt lat="44.08885" lon="3.04449">
        <ele>397.751773</ele>
        <time>2026-02-05T16:19:27.401Z</time>
      </trkpt>
      <trkpt lat="44.08892" lon="3.04427">
        <ele>397.937673</ele>
        <time>2026-02-05T16:19:24.544Z</time>
      </trkpt>
      <trkpt lat="44.08913" lon="3.04375">
        <ele>397.789771</ele>
        <time>2026-02-05T16:19:17.057Z</time>
      </trkpt>
      <trkpt lat="44.0892" lon="3.04339">
        <ele>397.697322</ele>
        <time>2026-02-05T16:19:12.124Z</time>
      </trkpt>
      <trkpt lat="44.08926" lon="3.04269">
        <ele>397.521158</ele>
        <time>2026-02-05T16:19:00.070Z</time>
      </trkpt>
      <trkpt lat="44.08931" lon="3.04242">
        <ele>397.451407</ele>
        <time>2026-02-05T16:18:54.503Z</time>
      </trkpt>
      <trkpt lat="44.08939" lon="3.04213">
        <ele>397.374276</ele>
        <time>2026-02-05T16:18:47.557Z</time>
      </trkpt>
      <trkpt lat="44.08975" lon="3.04141">
        <ele>394.679161</ele>
        <time>2026-02-05T16:18:22.591Z</time>
      </trkpt>
      <trkpt lat="44.09039" lon="3.04037">
        <ele>390.205318</ele>
        <time>2026-02-05T16:17:36.249Z</time>
      </trkpt>
      <trkpt lat="44.09079" lon="3.03975">
        <ele>388.089935</ele>
        <time>2026-02-05T16:17:08.070Z</time>
      </trkpt>
      <trkpt lat="44.0911" lon="3.03938">
        <ele>386.890042</ele>
        <time>2026-02-05T16:16:50.868Z</time>
      </trkpt>
      <trkpt lat="44.09161" lon="3.03858">
        <ele>384.637544</ele>
        <time>2026-02-05T16:16:26.958Z</time>
      </trkpt>
      <trkpt lat="44.09167" lon="3.03851">
        <ele>384.408885</ele>
        <time>2026-02-05T16:16:24.582Z</time>
      </trkpt>
      <trkpt lat="44.09202" lon="3.03819">
        <ele>383.916549</ele>
        <time>2026-02-05T16:16:16.330Z</time>
      </trkpt>
      <trkpt lat="44.09217" lon="3.03799">
        <ele>383.918018</ele>
        <time>2026-02-05T16:16:12.703Z</time>
      </trkpt>
      <trkpt lat="44.0923" lon="3.03775">
        <ele>383.919531</ele>
        <time>2026-02-05T16:16:08.565Z</time>
      </trkpt>
      <trkpt lat="44.09262" lon="3.03688">
        <ele>383.92451</ele>
        <time>2026-02-05T16:15:54.966Z</time>
      </trkpt>
      <trkpt lat="44.09269" lon="3.03644">
        <ele>383.926829</ele>
        <time>2026-02-05T16:15:48.327Z</time>
      </trkpt>
      <trkpt lat="44.09273" lon="3.03582">
        <ele>383.270542</ele>
        <time>2026-02-05T16:15:39.049Z</time>
      </trkpt>
      <trkpt lat="44.09273" lon="3.0356">
        <ele>382.97246</ele>
        <time>2026-02-05T16:15:34.955Z</time>
      </trkpt>
      <trkpt lat="44.09273" lon="3.03541">
        <ele>382.724502</ele>
        <time>2026-02-05T16:15:31.660Z</time>
      </trkpt>
      <trkpt lat="44.09262" lon="3.03457">
        <ele>381.556359</ele>
        <time>2026-02-05T16:15:10.871Z</time>
      </trkpt>
      <trkpt lat="44.09252" lon="3.0342">
        <ele>381.027815</ele>
        <time>2026-02-05T16:15:00.810Z</time>
      </trkpt>
      <trkpt lat="44.0923" lon="3.03353">
        <ele>380.274562</ele>
        <time>2026-02-05T16:14:42.549Z</time>
      </trkpt>
      <trkpt lat="44.09207" lon="3.03305">
        <ele>379.877011</ele>
        <time>2026-02-05T16:14:29.335Z</time>
      </trkpt>
      <trkpt lat="44.0919" lon="3.03267">
        <ele>379.559121</ele>
        <time>2026-02-05T16:14:20.295Z</time>
      </trkpt>
      <trkpt lat="44.09173" lon="3.03238">
        <ele>379.297404</ele>
        <time>2026-02-05T16:14:14.182Z</time>
      </trkpt>
      <trkpt lat="44.09074" lon="3.03138">
        <ele>380.334817</ele>
        <time>2026-02-05T16:13:52.626Z</time>
      </trkpt>
      <trkpt lat="44.09044" lon="3.03118">
        <ele>381.078844</ele>
        <time>2026-02-05T16:13:47.468Z</time>
      </trkpt>
      <trkpt lat="44.09004" lon="3.03074">
        <ele>382.201019</ele>
        <time>2026-02-05T16:13:39.927Z</time>
      </trkpt>
      <trkpt lat="44.08903" lon="3.03007">
        <ele>384.379073</ele>
        <time>2026-02-05T16:13:21.751Z</time>
      </trkpt>
      <trkpt lat="44.08865" lon="3.02979">
        <ele>385.18679</ele>
        <time>2026-02-05T16:13:14.471Z</time>
      </trkpt>
      <trkpt lat="44.08843" lon="3.02927">
        <ele>385.991596</ele>
        <time>2026-02-05T16:13:04.820Z</time>
      </trkpt>
      <trkpt lat="44.08836" lon="3.02919">
        <ele>386.156122</ele>
        <time>2026-02-05T16:13:02.687Z</time>
      </trkpt>
      <trkpt lat="44.08813" lon="3.02905">
        <ele>386.468389</ele>
        <time>2026-02-05T16:12:57.257Z</time>
      </trkpt>
      <trkpt lat="44.08768" lon="3.02862">
        <ele>387.178348</ele>
        <time>2026-02-05T16:12:44.601Z</time>
      </trkpt>
      <trkpt lat="44.08738" lon="3.02832">
        <ele>387.657768</ele>
        <time>2026-02-05T16:12:35.631Z</time>
      </trkpt>
      <trkpt lat="44.08712" lon="3.02787">
        <ele>388.184805</ele>
        <time>2026-02-05T16:12:26.693Z</time>
      </trkpt>
      <trkpt lat="44.08669" lon="3.0275">
        <ele>388.905196</ele>
        <time>2026-02-05T16:12:16.297Z</time>
      </trkpt>
      <trkpt lat="44.0865" lon="3.02729">
        <ele>389.27015</ele>
        <time>2026-02-05T16:12:11.307Z</time>
      </trkpt>
      <trkpt lat="44.08601" lon="3.02661">
        <ele>390.316321</ele>
        <time>2026-02-05T16:11:56.001Z</time>
      </trkpt>
      <trkpt lat="44.0857" lon="3.02572">
        <ele>391.086231</ele>
        <time>2026-02-05T16:11:39.914Z</time>
      </trkpt>
      <trkpt lat="44.08546" lon="3.02513">
        <ele>390.821141</ele>
        <time>2026-02-05T16:11:27.943Z</time>
      </trkpt>
      <trkpt lat="44.0851" lon="3.02444">
        <ele>390.489918</ele>
        <time>2026-02-05T16:11:10.376Z</time>
      </trkpt>
      <trkpt lat="44.08463" lon="3.02319">
        <ele>389.618145</ele>
        <time>2026-02-05T16:10:35.774Z</time>
      </trkpt>
      <trkpt lat="44.08428" lon="3.02258">
        <ele>388.92073</ele>
        <time>2026-02-05T16:10:17.118Z</time>
      </trkpt>
      <trkpt lat="44.08415" lon="3.02231">
        <ele>388.637016</ele>
        <time>2026-02-05T16:10:09.759Z</time>
      </trkpt>
      <trkpt lat="44.08385" lon="3.02146">
        <ele>388.036749</ele>
        <time>2026-02-05T16:09:48.927Z</time>
      </trkpt>
      <trkpt lat="44.08298" lon="3.01805">
        <ele>391.138797</ele>
        <time>2026-02-05T16:08:49.032Z</time>
      </trkpt>
      <trkpt lat="44.0829" lon="3.01725">
        <ele>392.493673</ele>
        <time>2026-02-05T16:08:37.889Z</time>
      </trkpt>
      <trkpt lat="44.0829" lon="3.01685">
        <ele>393.174252</ele>
        <time>2026-02-05T16:08:30.751Z</time>
      </trkpt>
      <trkpt lat="44.08284" lon="3.01678">
        <ele>393.507722</ele>
        <time>2026-02-05T16:08:29.794Z</time>
      </trkpt>
      <trkpt lat="44.08272" lon="3.01557">
        <ele>397.174762</ele>
        <time>2026-02-05T16:08:16.938Z</time>
      </trkpt>
      <trkpt lat="44.08265" lon="3.01546">
        <ele>397.622176</ele>
        <time>2026-02-05T16:08:14.999Z</time>
      </trkpt>
      <trkpt lat="44.08256" lon="3.01541">
        <ele>398.028494</ele>
        <time>2026-02-05T16:08:13.828Z</time>
      </trkpt>
      <trkpt lat="44.08226" lon="3.01538">
        <ele>399.289199</ele>
        <time>2026-02-05T16:08:09.017Z</time>
      </trkpt>
      <trkpt lat="44.08192" lon="3.01547">
        <ele>400.745258</ele>
        <time>2026-02-05T16:08:04.088Z</time>
      </trkpt>
      <trkpt lat="44.08175" lon="3.01541">
        <ele>401.39957</ele>
        <time>2026-02-05T16:08:01.486Z</time>
      </trkpt>
      <trkpt lat="44.08169" lon="3.01531">
        <ele>401.788634</ele>
        <time>2026-02-05T16:07:59.948Z</time>
      </trkpt>
      <trkpt lat="44.0817" lon="3.0152">
        <ele>402.10754</ele>
        <time>2026-02-05T16:07:58.641Z</time>
      </trkpt>
      <trkpt lat="44.08175" lon="3.01514">
        <ele>402.398488</ele>
        <time>2026-02-05T16:07:57.527Z</time>
      </trkpt>
      <trkpt lat="44.08237" lon="3.01475">
        <ele>405.086126</ele>
        <time>2026-02-05T16:07:47.017Z</time>
      </trkpt>
      <trkpt lat="44.08256" lon="3.01457">
        <ele>405.973209</ele>
        <time>2026-02-05T16:07:43.810Z</time>
      </trkpt>
      <trkpt lat="44.08259" lon="3.01448">
        <ele>406.272532</ele>
        <time>2026-02-05T16:07:42.746Z</time>
      </trkpt>
      <trkpt lat="44.0826" lon="3.014">
        <ele>407.624182</ele>
        <time>2026-02-05T16:07:37.981Z</time>
      </trkpt>
      <trkpt lat="44.08266" lon="3.01357">
        <ele>409.066221</ele>
        <time>2026-02-05T16:07:33.420Z</time>
      </trkpt>
      <trkpt lat="44.08264" lon="3.01336">
        <ele>409.757927</ele>
        <time>2026-02-05T16:07:31.251Z</time>
      </trkpt>
      <trkpt lat="44.08254" lon="3.01288">
        <ele>411.404741</ele>
        <time>2026-02-05T16:07:26.157Z</time>
      </trkpt>
      <trkpt lat="44.08223" lon="3.01202">
        <ele>414.599089</ele>
        <time>2026-02-05T16:07:16.289Z</time>
      </trkpt>
      <trkpt lat="44.08221" lon="3.01186">
        <ele>415.129279</ele>
        <time>2026-02-05T16:07:14.560Z</time>
      </trkpt>
      <trkpt lat="44.08221" lon="3.0114">
        <ele>416.482582</ele>
        <time>2026-02-05T16:07:09.685Z</time>
      </trkpt>
      <trkpt lat="44.08231" lon="3.01078">
        <ele>418.01597</ele>
        <time>2026-02-05T16:07:02.675Z</time>
      </trkpt>
      <trkpt lat="44.08236" lon="3.01073">
        <ele>418.222244</ele>
        <time>2026-02-05T16:07:01.744Z</time>
      </trkpt>
      <trkpt lat="44.08243" lon="3.01075">
        <ele>418.465624</ele>
        <time>2026-02-05T16:07:00.641Z</time>
      </trkpt>
      <trkpt lat="44.08278" lon="3.01108">
        <ele>419.861097</ele>
        <time>2026-02-05T16:06:53.703Z</time>
      </trkpt>
      <trkpt lat="44.08283" lon="3.01109">
        <ele>420.043033</ele>
        <time>2026-02-05T16:06:52.537Z</time>
      </trkpt>
      <trkpt lat="44.08287" lon="3.01106">
        <ele>420.182313</ele>
        <time>2026-02-05T16:06:51.733Z</time>
      </trkpt>
      <trkpt lat="44.08285" lon="3.01098">
        <ele>420.3559</ele>
        <time>2026-02-05T16:06:50.736Z</time>
      </trkpt>
      <trkpt lat="44.08282" lon="3.01093">
        <ele>420.530684</ele>
        <time>2026-02-05T16:06:49.761Z</time>
      </trkpt>
      <trkpt lat="44.08262" lon="3.01074">
        <ele>421.326735</ele>
        <time>2026-02-05T16:06:46.132Z</time>
      </trkpt>
      <trkpt lat="44.08238" lon="3.01041">
        <ele>422.784536</ele>
        <time>2026-02-05T16:06:41.106Z</time>
      </trkpt>
      <trkpt lat="44.08229" lon="3.01037">
        <ele>423.38787</ele>
        <time>2026-02-05T16:06:39.971Z</time>
      </trkpt>
      <trkpt lat="44.08221" lon="3.01042">
        <ele>423.979984</ele>
        <time>2026-02-05T16:06:38.246Z</time>
      </trkpt>
      <trkpt lat="44.08175" lon="3.01097">
        <ele>427.788981</ele>
        <time>2026-02-05T16:06:29.917Z</time>
      </trkpt>
      <trkpt lat="44.08168" lon="3.01116">
        <ele>428.74656</ele>
        <time>2026-02-05T16:06:27.555Z</time>
      </trkpt>
      <trkpt lat="44.08166" lon="3.01135">
        <ele>429.621992</ele>
        <time>2026-02-05T16:06:25.203Z</time>
      </trkpt>
      <trkpt lat="44.08162" lon="3.01137">
        <ele>429.875237</ele>
        <time>2026-02-05T16:06:24.718Z</time>
      </trkpt>
      <trkpt lat="44.08159" lon="3.01131">
        <ele>430.17342</ele>
        <time>2026-02-05T16:06:24.129Z</time>
      </trkpt>
      <trkpt lat="44.08158" lon="3.01083">
        <ele>432.340371</ele>
        <time>2026-02-05T16:06:19.549Z</time>
      </trkpt>
      <trkpt lat="44.08168" lon="3.01049">
        <ele>434.189361</ele>
        <time>2026-02-05T16:06:15.690Z</time>
      </trkpt>
      <trkpt lat="44.08183" lon="3.01024">
        <ele>436.086958</ele>
        <time>2026-02-05T16:06:12.776Z</time>
      </trkpt>
      <trkpt lat="44.08185" lon="3.01011">
        <ele>436.872027</ele>
        <time>2026-02-05T16:06:11.384Z</time>
      </trkpt>
      <trkpt lat="44.08184" lon="3.00994">
        <ele>437.840375</ele>
        <time>2026-02-05T16:06:09.960Z</time>
      </trkpt>
      <trkpt lat="44.08179" lon="3.00953">
        <ele>440.292866</ele>
        <time>2026-02-05T16:06:05.940Z</time>
      </trkpt>
      <trkpt lat="44.08183" lon="3.00894">
        <ele>443.718045</ele>
        <time>2026-02-05T16:06:00.534Z</time>
      </trkpt>
      <trkpt lat="44.0818" lon="3.0084">
        <ele>446.924291</ele>
        <time>2026-02-05T16:05:55.162Z</time>
      </trkpt>
      <trkpt lat="44.08168" lon="3.00773">
        <ele>449.882299</ele>
        <time>2026-02-05T16:05:48.475Z</time>
      </trkpt>
      <trkpt lat="44.08148" lon="3.00708">
        <ele>452.563945</ele>
        <time>2026-02-05T16:05:41.480Z</time>
      </trkpt>
      <trkpt lat="44.08137" lon="3.00682">
        <ele>453.674499</ele>
        <time>2026-02-05T16:05:38.506Z</time>
      </trkpt>
      <trkpt lat="44.08123" lon="3.00659">
        <ele>454.83149</ele>
        <time>2026-02-05T16:05:35.386Z</time>
      </trkpt>
      <trkpt lat="44.08107" lon="3.00642">
        <ele>455.898663</ele>
        <time>2026-02-05T16:05:32.409Z</time>
      </trkpt>
      <trkpt lat="44.08093" lon="3.00614">
        <ele>457.166957</ele>
        <time>2026-02-05T16:05:28.799Z</time>
      </trkpt>
      <trkpt lat="44.08088" lon="3.00593">
        <ele>457.92595</ele>
        <time>2026-02-05T16:05:26.351Z</time>
      </trkpt>
      <trkpt lat="44.08091" lon="3.00579">
        <ele>458.405937</ele>
        <time>2026-02-05T16:05:24.697Z</time>
      </trkpt>
      <trkpt lat="44.08101" lon="3.00568">
        <ele>458.965576</ele>
        <time>2026-02-05T16:05:22.618Z</time>
      </trkpt>
      <trkpt lat="44.08114" lon="3.00559">
        <ele>459.666</ele>
        <time>2026-02-05T16:05:20.384Z</time>
      </trkpt>
      <trkpt lat="44.08142" lon="3.00547">
        <ele>460.985289</ele>
        <time>2026-02-05T16:05:15.970Z</time>
      </trkpt>
      <trkpt lat="44.08217" lon="3.00533">
        <ele>464.483139</ele>
        <time>2026-02-05T16:05:05.205Z</time>
      </trkpt>
      <trkpt lat="44.08241" lon="3.00523">
        <ele>465.618011</ele>
        <time>2026-02-05T16:05:01.757Z</time>
      </trkpt>
      <trkpt lat="44.08257" lon="3.00504">
        <ele>467.129911</ele>
        <time>2026-02-05T16:04:58.973Z</time>
      </trkpt>
      <trkpt lat="44.08263" lon="3.00498">
        <ele>467.672793</ele>
        <time>2026-02-05T16:04:57.981Z</time>
      </trkpt>
      <trkpt lat="44.08183" lon="3.00488">
        <ele>473.771935</ele>
        <time>2026-02-05T16:04:47.078Z</time>
      </trkpt>
      <trkpt lat="44.08102" lon="3.00486">
        <ele>479.815194</ele>
        <time>2026-02-05T16:04:36.781Z</time>
      </trkpt>
      <trkpt lat="44.0807" lon="3.00476">
        <ele>481.762432</ele>
        <time>2026-02-05T16:04:32.532Z</time>
      </trkpt>
      <trkpt lat="44.08062" lon="3.00477">
        <ele>482.254066</ele>
        <time>2026-02-05T16:04:31.323Z</time>
      </trkpt>
      <trkpt lat="44.08033" lon="3.0049">
        <ele>484.085343</ele>
        <time>2026-02-05T16:04:27.368Z</time>
      </trkpt>
      <trkpt lat="44.08019" lon="3.00494">
        <ele>484.917374</ele>
        <time>2026-02-05T16:04:25.333Z</time>
      </trkpt>
      <trkpt lat="44.08002" lon="3.00488">
        <ele>485.975437</ele>
        <time>2026-02-05T16:04:23.044Z</time>
      </trkpt>
      <trkpt lat="44.08009" lon="3.00436">
        <ele>488.254882</ele>
        <time>2026-02-05T16:04:17.797Z</time>
      </trkpt>
      <trkpt lat="44.0801" lon="3.00379">
        <ele>489.846348</ele>
        <time>2026-02-05T16:04:11.762Z</time>
      </trkpt>
      <trkpt lat="44.08002" lon="3.00377">
        <ele>489.607622</ele>
        <time>2026-02-05T16:04:09.590Z</time>
      </trkpt>
      <trkpt lat="44.07978" lon="3.00351">
        <ele>488.694404</ele>
        <time>2026-02-05T16:03:59.409Z</time>
      </trkpt>
      <trkpt lat="44.07976" lon="3.00281">
        <ele>487.225186</ele>
        <time>2026-02-05T16:03:36.057Z</time>
      </trkpt>
      <trkpt lat="44.07986" lon="3.00185">
        <ele>485.162201</ele>
        <time>2026-02-05T16:02:54.389Z</time>
      </trkpt>
      <trkpt lat="44.07985" lon="3.00155">
        <ele>484.316658</ele>
        <time>2026-02-05T16:02:40.249Z</time>
      </trkpt>
      <trkpt lat="44.07986" lon="3.00132">
        <ele>483.527631</ele>
        <time>2026-02-05T16:02:28.481Z</time>
      </trkpt>
      <trkpt lat="44.07993" lon="3.00102">
        <ele>482.45716</ele>
        <time>2026-02-05T16:02:13.159Z</time>
      </trkpt>
      <trkpt lat="44.07987" lon="3.0008">
        <ele>481.624207</ele>
        <time>2026-02-05T16:02:01.407Z</time>
      </trkpt>
      <trkpt lat="44.07987" lon="3.00072">
        <ele>481.360264</ele>
        <time>2026-02-05T16:01:58.114Z</time>
      </trkpt>
      <trkpt lat="44.07993" lon="3.00057">
        <ele>480.731932</ele>
        <time>2026-02-05T16:01:50.401Z</time>
      </trkpt>
      <trkpt lat="44.07995" lon="3.00045">
        <ele>480.332058</ele>
        <time>2026-02-05T16:01:45.805Z</time>
      </trkpt>
      <trkpt lat="44.07992" lon="3.00025">
        <ele>479.605823</ele>
        <time>2026-02-05T16:01:36.491Z</time>
      </trkpt>
      <trkpt lat="44.07987" lon="2.9999">
        <ele>478.366804</ele>
        <time>2026-02-05T16:01:21.993Z</time>
      </trkpt>
      <trkpt lat="44.07977" lon="2.99948">
        <ele>476.852662</ele>
        <time>2026-02-05T16:01:04.690Z</time>
      </trkpt>
      <trkpt lat="44.07972" lon="2.99936">
        <ele>476.347701</ele>
        <time>2026-02-05T16:01:00.177Z</time>
      </trkpt>
      <trkpt lat="44.07965" lon="2.99926">
        <ele>476.258048</ele>
        <time>2026-02-05T16:00:57.182Z</time>
      </trkpt>
      <trkpt lat="44.07955" lon="2.99919">
        <ele>476.549604</ele>
        <time>2026-02-05T16:00:53.848Z</time>
      </trkpt>
      <trkpt lat="44.0794" lon="2.99921">
        <ele>476.934504</ele>
        <time>2026-02-05T16:00:49.363Z</time>
      </trkpt>
      <trkpt lat="44.07912" lon="2.99941">
        <ele>477.756611</ele>
        <time>2026-02-05T16:00:40.700Z</time>
      </trkpt>
      <trkpt lat="44.07867" lon="3.00009">
        <ele>479.50521</ele>
        <time>2026-02-05T16:00:23.631Z</time>
      </trkpt>
      <trkpt lat="44.07858" lon="3.00038">
        <ele>480.098039</ele>
        <time>2026-02-05T16:00:18.049Z</time>
      </trkpt>
      <trkpt lat="44.07852" lon="3.00048">
        <ele>480.32833</ele>
        <time>2026-02-05T16:00:15.986Z</time>
      </trkpt>
      <trkpt lat="44.07832" lon="3.00066">
        <ele>481.057781</ele>
        <time>2026-02-05T16:00:10.207Z</time>
      </trkpt>
      <trkpt lat="44.07804" lon="3.00097">
        <ele>482.653046</ele>
        <time>2026-02-05T16:00:01.902Z</time>
      </trkpt>
      <trkpt lat="44.0779" lon="3.00118">
        <ele>483.588617</ele>
        <time>2026-02-05T15:59:57.067Z</time>
      </trkpt>
      <trkpt lat="44.07777" lon="3.00133">
        <ele>484.354789</ele>
        <time>2026-02-05T15:59:52.957Z</time>
      </trkpt>
      <trkpt lat="44.07763" lon="3.0014">
        <ele>485.019235</ele>
        <time>2026-02-05T15:59:49.524Z</time>
      </trkpt>
      <trkpt lat="44.07747" lon="3.00142">
        <ele>485.760466</ele>
        <time>2026-02-05T15:59:45.466Z</time>
      </trkpt>
      <trkpt lat="44.07729" lon="3.00155">
        <ele>486.672516</ele>
        <time>2026-02-05T15:59:40.660Z</time>
      </trkpt>
      <trkpt lat="44.07714" lon="3.0018">
        <ele>487.724196</ele>
        <time>2026-02-05T15:59:34.705Z</time>
      </trkpt>
      <trkpt lat="44.07707" lon="3.00184">
        <ele>488.059084</ele>
        <time>2026-02-05T15:59:32.891Z</time>
      </trkpt>
      <trkpt lat="44.07658" lon="3.00155">
        <ele>488.762534</ele>
        <time>2026-02-05T15:59:18.198Z</time>
      </trkpt>
      <trkpt lat="44.07639" lon="3.00131">
        <ele>488.648391</ele>
        <time>2026-02-05T15:59:10.988Z</time>
      </trkpt>
      <trkpt lat="44.07621" lon="3.00126">
        <ele>488.56453</ele>
        <time>2026-02-05T15:59:04.154Z</time>
      </trkpt>
      <trkpt lat="44.07603" lon="3.00106">
        <ele>488.45782</ele>
        <time>2026-02-05T15:58:55.721Z</time>
      </trkpt>
      <trkpt lat="44.07591" lon="3.00098">
        <ele>488.399631</ele>
        <time>2026-02-05T15:58:50.437Z</time>
      </trkpt>
      <trkpt lat="44.07589" lon="3.00084">
        <ele>488.352577</ele>
        <time>2026-02-05T15:58:46.455Z</time>
      </trkpt>
      <trkpt lat="44.07622" lon="3.00011">
        <ele>487.86527</ele>
        <time>2026-02-05T15:58:18.808Z</time>
      </trkpt>
      <trkpt lat="44.07627" lon="2.99982">
        <ele>487.118205</ele>
        <time>2026-02-05T15:58:08.925Z</time>
      </trkpt>
      <trkpt lat="44.07627" lon="2.99964">
        <ele>486.686797</ele>
        <time>2026-02-05T15:58:03.188Z</time>
      </trkpt>
      <trkpt lat="44.07624" lon="2.99948">
        <ele>486.253952</ele>
        <time>2026-02-05T15:57:57.761Z</time>
      </trkpt>
      <trkpt lat="44.07613" lon="2.99933">
        <ele>485.728091</ele>
        <time>2026-02-05T15:57:50.897Z</time>
      </trkpt>
      <trkpt lat="44.07597" lon="2.99927">
        <ele>485.15494</ele>
        <time>2026-02-05T15:57:43.728Z</time>
      </trkpt>
      <trkpt lat="44.07568" lon="2.99922">
        <ele>484.130596</ele>
        <time>2026-02-05T15:57:29.759Z</time>
      </trkpt>
      <trkpt lat="44.07516" lon="2.99861">
        <ele>481.738904</ele>
        <time>2026-02-05T15:56:52.639Z</time>
      </trkpt>
      <trkpt lat="44.07469" lon="2.9982">
        <ele>478.798508</ele>
        <time>2026-02-05T15:56:21.123Z</time>
      </trkpt>
      <trkpt lat="44.07412" lon="2.99778">
        <ele>475.338766</ele>
        <time>2026-02-05T15:55:42.608Z</time>
      </trkpt>
      <trkpt lat="44.0739" lon="2.99752">
        <ele>473.836262</ele>
        <time>2026-02-05T15:55:25.432Z</time>
      </trkpt>
      <trkpt lat="44.07352" lon="2.99725">
        <ele>471.902602</ele>
        <time>2026-02-05T15:54:58.853Z</time>
      </trkpt>
      <trkpt lat="44.07328" lon="2.99715">
        <ele>471.220772</ele>
        <time>2026-02-05T15:54:44.573Z</time>
      </trkpt>
      <trkpt lat="44.07305" lon="2.9971">
        <ele>470.581857</ele>
        <time>2026-02-05T15:54:31.330Z</time>
      </trkpt>
      <trkpt lat="44.0729" lon="2.99715">
        <ele>470.13454</ele>
        <time>2026-02-05T15:54:23.473Z</time>
      </trkpt>
      <trkpt lat="44.07269" lon="2.99732">
        <ele>469.477759</ele>
        <time>2026-02-05T15:54:11.950Z</time>
      </trkpt>
      <trkpt lat="44.07257" lon="2.99755">
        <ele>468.921089</ele>
        <time>2026-02-05T15:54:03.963Z</time>
      </trkpt>
      <trkpt lat="44.07247" lon="2.99791">
        <ele>468.153608</ele>
        <time>2026-02-05T15:53:53.843Z</time>
      </trkpt>
      <trkpt lat="44.07242" lon="2.99818">
        <ele>467.606721</ele>
        <time>2026-02-05T15:53:46.680Z</time>
      </trkpt>
      <trkpt lat="44.07236" lon="2.99829">
        <ele>467.347214</ele>
        <time>2026-02-05T15:53:43.586Z</time>
      </trkpt>
      <trkpt lat="44.0723" lon="2.99841">
        <ele>467.590629</ele>
        <time>2026-02-05T15:53:40.567Z</time>
      </trkpt>
      <trkpt lat="44.07209" lon="2.99859">
        <ele>468.162959</ele>
        <time>2026-02-05T15:53:33.249Z</time>
      </trkpt>
      <trkpt lat="44.07187" lon="2.99921">
        <ele>469.325566</ele>
        <time>2026-02-05T15:53:19.674Z</time>
      </trkpt>
      <trkpt lat="44.07181" lon="2.99968">
        <ele>470.115308</ele>
        <time>2026-02-05T15:53:10.930Z</time>
      </trkpt>
      <trkpt lat="44.07181" lon="3.00018">
        <ele>470.957808</ele>
        <time>2026-02-05T15:53:01.846Z</time>
      </trkpt>
      <trkpt lat="44.07182" lon="3.00044">
        <ele>471.402765</ele>
        <time>2026-02-05T15:52:56.940Z</time>
      </trkpt>
      <trkpt lat="44.07191" lon="3.00073">
        <ele>472.151186</ele>
        <time>2026-02-05T15:52:51.216Z</time>
      </trkpt>
      <trkpt lat="44.07194" lon="3.00098">
        <ele>472.833636</ele>
        <time>2026-02-05T15:52:46.509Z</time>
      </trkpt>
      <trkpt lat="44.07193" lon="3.00119">
        <ele>473.3898</ele>
        <time>2026-02-05T15:52:42.603Z</time>
      </trkpt>
      <trkpt lat="44.07173" lon="3.00147">
        <ele>474.442923</ele>
        <time>2026-02-05T15:52:35.090Z</time>
      </trkpt>
      <trkpt lat="44.07154" lon="3.00194">
        <ele>475.862488</ele>
        <time>2026-02-05T15:52:24.723Z</time>
      </trkpt>
      <trkpt lat="44.07129" lon="3.00227">
        <ele>477.155416</ele>
        <time>2026-02-05T15:52:16.307Z</time>
      </trkpt>
      <trkpt lat="44.07117" lon="3.00261">
        <ele>478.15016</ele>
        <time>2026-02-05T15:52:09.812Z</time>
      </trkpt>
      <trkpt lat="44.071" lon="3.00275">
        <ele>479.413837</ele>
        <time>2026-02-05T15:52:05.067Z</time>
      </trkpt>
      <trkpt lat="44.07088" lon="3.00276">
        <ele>480.209934</ele>
        <time>2026-02-05T15:52:02.137Z</time>
      </trkpt>
      <trkpt lat="44.0707" lon="3.00272">
        <ele>481.382831</ele>
        <time>2026-02-05T15:51:57.682Z</time>
      </trkpt>
      <trkpt lat="44.07046" lon="3.00293">
        <ele>483.210418</ele>
        <time>2026-02-05T15:51:50.957Z</time>
      </trkpt>
      <trkpt lat="44.07042" lon="3.00342">
        <ele>485.492867</ele>
        <time>2026-02-05T15:51:42.675Z</time>
      </trkpt>
      <trkpt lat="44.07028" lon="3.00385">
        <ele>487.69138</ele>
        <time>2026-02-05T15:51:34.878Z</time>
      </trkpt>
      <trkpt lat="44.0702" lon="3.00418">
        <ele>489.271252</ele>
        <time>2026-02-05T15:51:29.437Z</time>
      </trkpt>
      <trkpt lat="44.06991" lon="3.00468">
        <ele>494.272549</ele>
        <time>2026-02-05T15:51:19.516Z</time>
      </trkpt>
      <trkpt lat="44.0697" lon="3.00492">
        <ele>497.496242</ele>
        <time>2026-02-05T15:51:13.797Z</time>
      </trkpt>
      <trkpt lat="44.06924" lon="3.00528">
        <ele>503.7366</ele>
        <time>2026-02-05T15:51:02.603Z</time>
      </trkpt>
      <trkpt lat="44.06909" lon="3.00546">
        <ele>506.020355</ele>
        <time>2026-02-05T15:50:58.555Z</time>
      </trkpt>
      <trkpt lat="44.06875" lon="3.006">
        <ele>512.684845</ele>
        <time>2026-02-05T15:50:47.991Z</time>
      </trkpt>
      <trkpt lat="44.06846" lon="3.00622">
        <ele>518.795529</ele>
        <time>2026-02-05T15:50:41.269Z</time>
      </trkpt>
      <trkpt lat="44.06836" lon="3.00635">
        <ele>521.221638</ele>
        <time>2026-02-05T15:50:38.503Z</time>
      </trkpt>
      <trkpt lat="44.06823" lon="3.00688">
        <ele>528.476698</ele>
        <time>2026-02-05T15:50:30.595Z</time>
      </trkpt>
      <trkpt lat="44.06825" lon="3.00716">
        <ele>532.143551</ele>
        <time>2026-02-05T15:50:26.659Z</time>
      </trkpt>
      <trkpt lat="44.06819" lon="3.00738">
        <ele>535.1329</ele>
        <time>2026-02-05T15:50:23.351Z</time>
      </trkpt>
      <trkpt lat="44.06808" lon="3.00752">
        <ele>537.833567</ele>
        <time>2026-02-05T15:50:20.468Z</time>
      </trkpt>
      <trkpt lat="44.068" lon="3.00772">
        <ele>540.862838</ele>
        <time>2026-02-05T15:50:17.070Z</time>
      </trkpt>
      <trkpt lat="44.06784" lon="3.00783">
        <ele>544.520005</ele>
        <time>2026-02-05T15:50:13.549Z</time>
      </trkpt>
      <trkpt lat="44.06757" lon="3.00838">
        <ele>558.52614</ele>
        <time>2026-02-05T15:50:04.356Z</time>
      </trkpt>
      <trkpt lat="44.06741" lon="3.00892">
        <ele>571.019745</ele>
        <time>2026-02-05T15:49:55.950Z</time>
      </trkpt>
      <trkpt lat="44.0672" lon="3.00926">
        <ele>580.523616</ele>
        <time>2026-02-05T15:49:49.583Z</time>
      </trkpt>
      <trkpt lat="44.06713" lon="3.00929">
        <ele>582.697741</ele>
        <time>2026-02-05T15:49:48.113Z</time>
      </trkpt>
      <trkpt lat="44.06691" lon="3.00911">
        <ele>590.264358</ele>
        <time>2026-02-05T15:49:43.093Z</time>
      </trkpt>
      <trkpt lat="44.06687" lon="3.00915">
        <ele>591.700431</ele>
        <time>2026-02-05T15:49:42.037Z</time>
      </trkpt>
      <trkpt lat="44.06704" lon="3.01004">
        <ele>610.087743</ele>
        <time>2026-02-05T15:49:29.109Z</time>
      </trkpt>
      <trkpt lat="44.06706" lon="3.01071">
        <ele>623.194799</ele>
        <time>2026-02-05T15:49:19.639Z</time>
      </trkpt>
      <trkpt lat="44.06699" lon="3.01097">
        <ele>628.616401</ele>
        <time>2026-02-05T15:49:15.787Z</time>
      </trkpt>
      <trkpt lat="44.06702" lon="3.01125">
        <ele>634.138356</ele>
        <time>2026-02-05T15:49:11.799Z</time>
      </trkpt>
      <trkpt lat="44.06688" lon="3.01137">
        <ele>638.793801</ele>
        <time>2026-02-05T15:49:08.491Z</time>
      </trkpt>
      <trkpt lat="44.06691" lon="3.0115">
        <ele>641.527702</ele>
        <time>2026-02-05T15:49:06.542Z</time>
      </trkpt>
      <trkpt lat="44.06722" lon="3.0117">
        <ele>648.713517</ele>
        <time>2026-02-05T15:48:59.646Z</time>
      </trkpt>
      <trkpt lat="44.06724" lon="3.01176">
        <ele>649.397724</ele>
        <time>2026-02-05T15:48:58.744Z</time>
      </trkpt>
      <trkpt lat="44.06716" lon="3.01185">
        <ele>651.044949</ele>
        <time>2026-02-05T15:48:56.540Z</time>
      </trkpt>
      <trkpt lat="44.06705" lon="3.01185">
        <ele>652.7862</ele>
        <time>2026-02-05T15:48:54.156Z</time>
      </trkpt>
      <trkpt lat="44.06712" lon="3.01198">
        <ele>654.616918</ele>
        <time>2026-02-05T15:48:51.623Z</time>
      </trkpt>
      <trkpt lat="44.06721" lon="3.01203">
        <ele>656.151651</ele>
        <time>2026-02-05T15:48:49.560Z</time>
      </trkpt>
      <trkpt lat="44.06719" lon="3.01209">
        <ele>656.889032</ele>
        <time>2026-02-05T15:48:48.544Z</time>
      </trkpt>
      <trkpt lat="44.06695" lon="3.0121">
        <ele>660.685423</ele>
        <time>2026-02-05T15:48:43.096Z</time>
      </trkpt>
      <trkpt lat="44.06669" lon="3.01203">
        <ele>664.78709</ele>
        <time>2026-02-05T15:48:38.029Z</time>
      </trkpt>
      <trkpt lat="44.06651" lon="3.0121">
        <ele>667.819028</ele>
        <time>2026-02-05T15:48:34.266Z</time>
      </trkpt>
      <trkpt lat="44.06642" lon="3.01224">
        <ele>669.900802</ele>
        <time>2026-02-05T15:48:31.419Z</time>
      </trkpt>
      <trkpt lat="44.06628" lon="3.01265">
        <ele>675.134177</ele>
        <time>2026-02-05T15:48:24.904Z</time>
      </trkpt>
      <trkpt lat="44.06618" lon="3.01281">
        <ele>677.82204</ele>
        <time>2026-02-05T15:48:21.154Z</time>
      </trkpt>
      <trkpt lat="44.06616" lon="3.01295">
        <ele>679.535875</ele>
        <time>2026-02-05T15:48:19.159Z</time>
      </trkpt>
      <trkpt lat="44.06629" lon="3.01327">
        <ele>683.985981</ele>
        <time>2026-02-05T15:48:13.494Z</time>
      </trkpt>
      <trkpt lat="44.06629" lon="3.01338">
        <ele>685.391415</ele>
        <time>2026-02-05T15:48:11.820Z</time>
      </trkpt>
      <trkpt lat="44.06626" lon="3.01354">
        <ele>687.436504</ele>
        <time>2026-02-05T15:48:09.438Z</time>
      </trkpt>
      <trkpt lat="44.06637" lon="3.0138">
        <ele>691.209823</ele>
        <time>2026-02-05T15:48:05.055Z</time>
      </trkpt>
      <trkpt lat="44.06638" lon="3.01396">
        <ele>693.133506</ele>
        <time>2026-02-05T15:48:02.868Z</time>
      </trkpt>
      <trkpt lat="44.06645" lon="3.01408">
        <ele>695.023809</ele>
        <time>2026-02-05T15:48:00.437Z</time>
      </trkpt>
      <trkpt lat="44.06644" lon="3.01413">
        <ele>695.568637</ele>
        <time>2026-02-05T15:47:59.692Z</time>
      </trkpt>
      <trkpt lat="44.06623" lon="3.01409">
        <ele>699.136518</ele>
        <time>2026-02-05T15:47:55.659Z</time>
      </trkpt>
      <trkpt lat="44.06602" lon="3.01413">
        <ele>702.809293</ele>
        <time>2026-02-05T15:47:51.129Z</time>
      </trkpt>
      <trkpt lat="44.06577" lon="3.01427">
        <ele>706.019173</ele>
        <time>2026-02-05T15:47:45.945Z</time>
      </trkpt>
      <trkpt lat="44.06569" lon="3.0144">
        <ele>707.059989</ele>
        <time>2026-02-05T15:47:43.550Z</time>
      </trkpt>
      <trkpt lat="44.06554" lon="3.01441">
        <ele>708.38284</ele>
        <time>2026-02-05T15:47:40.573Z</time>
      </trkpt>
      <trkpt lat="44.06539" lon="3.01449">
        <ele>709.702375</ele>
        <time>2026-02-05T15:47:37.024Z</time>
      </trkpt>
      <trkpt lat="44.06527" lon="3.01452">
        <ele>710.823086</ele>
        <time>2026-02-05T15:47:33.924Z</time>
      </trkpt>
      <trkpt lat="44.06522" lon="3.01449">
        <ele>711.271014</ele>
        <time>2026-02-05T15:47:32.715Z</time>
      </trkpt>
      <trkpt lat="44.06507" lon="3.01425">
        <ele>713.248251</ele>
        <time>2026-02-05T15:47:27.343Z</time>
      </trkpt>
      <trkpt lat="44.06503" lon="3.01424">
        <ele>713.565738</ele>
        <time>2026-02-05T15:47:26.427Z</time>
      </trkpt>
      <trkpt lat="44.06485" lon="3.01437">
        <ele>715.350842</ele>
        <time>2026-02-05T15:47:21.593Z</time>
      </trkpt>
      <trkpt lat="44.06432" lon="3.01461">
        <ele>720.099912</ele>
        <time>2026-02-05T15:47:08.108Z</time>
      </trkpt>
      <trkpt lat="44.06421" lon="3.0146">
        <ele>720.321945</ele>
        <time>2026-02-05T15:47:05.269Z</time>
      </trkpt>
      <trkpt lat="44.06414" lon="3.01456">
        <ele>720.463481</ele>
        <time>2026-02-05T15:47:03.141Z</time>
      </trkpt>
      <trkpt lat="44.064" lon="3.01421">
        <ele>721.00455</ele>
        <time>2026-02-05T15:46:54.675Z</time>
      </trkpt>
      <trkpt lat="44.06377" lon="3.01389">
        <ele>721.622542</ele>
        <time>2026-02-05T15:46:44.968Z</time>
      </trkpt>
      <trkpt lat="44.06368" lon="3.01382">
        <ele>721.824538</ele>
        <time>2026-02-05T15:46:41.912Z</time>
      </trkpt>
      <trkpt lat="44.06359" lon="3.01381">
        <ele>721.986173</ele>
        <time>2026-02-05T15:46:39.478Z</time>
      </trkpt>
      <trkpt lat="44.06347" lon="3.01383">
        <ele>722.222165</ele>
        <time>2026-02-05T15:46:35.864Z</time>
      </trkpt>
      <trkpt lat="44.06334" lon="3.01391">
        <ele>722.479498</ele>
        <time>2026-02-05T15:46:32.011Z</time>
      </trkpt>
      <trkpt lat="44.06325" lon="3.01399">
        <ele>722.688546</ele>
        <time>2026-02-05T15:46:28.909Z</time>
      </trkpt>
      <trkpt lat="44.06318" lon="3.01412">
        <ele>722.902304</ele>
        <time>2026-02-05T15:46:25.693Z</time>
      </trkpt>
      <trkpt lat="44.06314" lon="3.0144">
        <ele>723.29631</ele>
        <time>2026-02-05T15:46:19.904Z</time>
      </trkpt>
      <trkpt lat="44.06306" lon="3.01472">
        <ele>723.835409</ele>
        <time>2026-02-05T15:46:13.111Z</time>
      </trkpt>
      <trkpt lat="44.06294" lon="3.01504">
        <ele>724.467378</ele>
        <time>2026-02-05T15:46:06.259Z</time>
      </trkpt>
      <trkpt lat="44.06284" lon="3.01524">
        <ele>724.913037</ele>
        <time>2026-02-05T15:46:01.468Z</time>
      </trkpt>
      <trkpt lat="44.06226" lon="3.01617">
        <ele>727.117227</ele>
        <time>2026-02-05T15:45:38.313Z</time>
      </trkpt>
      <trkpt lat="44.06138" lon="3.0174">
        <ele>728.681787</ele>
        <time>2026-02-05T15:45:04.613Z</time>
      </trkpt>
      <trkpt lat="44.06097" lon="3.01792">
        <ele>729.115566</ele>
        <time>2026-02-05T15:44:46.925Z</time>
      </trkpt>
      <trkpt lat="44.06092" lon="3.01802">
        <ele>729.181657</ele>
        <time>2026-02-05T15:44:43.853Z</time>
      </trkpt>
      <trkpt lat="44.06139" lon="3.01903">
        <ele>728.380684</ele>
        <time>2026-02-05T15:44:10.427Z</time>
      </trkpt>
      <trkpt lat="44.06166" lon="3.01972">
        <ele>727.435087</ele>
        <time>2026-02-05T15:43:45.897Z</time>
      </trkpt>
      <trkpt lat="44.06168" lon="3.01987">
        <ele>727.243141</ele>
        <time>2026-02-05T15:43:40.644Z</time>
      </trkpt>
      <trkpt lat="44.06141" lon="3.02219">
        <ele>725.460298</ele>
        <time>2026-02-05T15:42:34.884Z</time>
      </trkpt>
      <trkpt lat="44.06136" lon="3.02265">
        <ele>725.195983</ele>
        <time>2026-02-05T15:42:24.098Z</time>
      </trkpt>
      <trkpt lat="44.06143" lon="3.02375">
        <ele>725.161966</ele>
        <time>2026-02-05T15:42:00.675Z</time>
      </trkpt>
      <trkpt lat="44.06156" lon="3.02583">
        <ele>725.013808</ele>
        <time>2026-02-05T15:41:15.468Z</time>
      </trkpt>
      <trkpt lat="44.06152" lon="3.02595">
        <ele>724.674147</ele>
        <time>2026-02-05T15:41:11.958Z</time>
      </trkpt>
      <trkpt lat="44.06146" lon="3.02599">
        <ele>724.460447</ele>
        <time>2026-02-05T15:41:09.688Z</time>
      </trkpt>
      <trkpt lat="44.06028" lon="3.02547">
        <ele>720.24389</ele>
        <time>2026-02-05T15:40:08.692Z</time>
      </trkpt>
      <trkpt lat="44.05987" lon="3.02515">
        <ele>717.278106</ele>
        <time>2026-02-05T15:39:36.295Z</time>
      </trkpt>
      <trkpt lat="44.05977" lon="3.02513">
        <ele>716.44151</ele>
        <time>2026-02-05T15:39:28.230Z</time>
      </trkpt>
      <trkpt lat="44.05925" lon="3.02523">
        <ele>711.982246</ele>
        <time>2026-02-05T15:38:49.054Z</time>
      </trkpt>
      <trkpt lat="44.05836" lon="3.02531">
        <ele>704.514776</ele>
        <time>2026-02-05T15:37:36.619Z</time>
      </trkpt>
      <trkpt lat="44.05659" lon="3.0253">
        <ele>691.607167</ele>
        <time>2026-02-05T15:35:32.680Z</time>
      </trkpt>
      <trkpt lat="44.05638" lon="3.0254">
        <ele>691.026778</ele>
        <time>2026-02-05T15:35:21.407Z</time>
      </trkpt>
      <trkpt lat="44.05621" lon="3.0256">
        <ele>690.713314</ele>
        <time>2026-02-05T15:35:10.527Z</time>
      </trkpt>
      <trkpt lat="44.05592" lon="3.02611">
        <ele>690.059955</ele>
        <time>2026-02-05T15:34:51.246Z</time>
      </trkpt>
      <trkpt lat="44.05514" lon="3.02796">
        <ele>690.238153</ele>
        <time>2026-02-05T15:34:05.371Z</time>
      </trkpt>
      <trkpt lat="44.05509" lon="3.02858">
        <ele>691.299954</ele>
        <time>2026-02-05T15:33:53.590Z</time>
      </trkpt>
      <trkpt lat="44.05496" lon="3.02933">
        <ele>692.615013</ele>
        <time>2026-02-05T15:33:39.531Z</time>
      </trkpt>
      <trkpt lat="44.05486" lon="3.02959">
        <ele>693.190081</ele>
        <time>2026-02-05T15:33:33.914Z</time>
      </trkpt>
      <trkpt lat="44.05464" lon="3.02994">
        <ele>694.743936</ele>
        <time>2026-02-05T15:33:25.208Z</time>
      </trkpt>
      <trkpt lat="44.0547" lon="3.03003">
        <ele>695.139593</ele>
        <time>2026-02-05T15:33:23.295Z</time>
      </trkpt>
      <trkpt lat="44.05485" lon="3.03015">
        <ele>695.952621</ele>
        <time>2026-02-05T15:33:18.649Z</time>
      </trkpt>
      <trkpt lat="44.05526" lon="3.03067">
        <ele>698.490198</ele>
        <time>2026-02-05T15:33:05.243Z</time>
      </trkpt>
      <trkpt lat="44.05585" lon="3.03135">
        <ele>702.075413</ele>
        <time>2026-02-05T15:32:47.119Z</time>
      </trkpt>
      <trkpt lat="44.05592" lon="3.03146">
        <ele>702.630447</ele>
        <time>2026-02-05T15:32:44.521Z</time>
      </trkpt>
      <trkpt lat="44.05591" lon="3.03186">
        <ele>704.081005</ele>
        <time>2026-02-05T15:32:37.690Z</time>
      </trkpt>
      <trkpt lat="44.05664" lon="3.03289">
        <ele>709.405932</ele>
        <time>2026-02-05T15:32:12.958Z</time>
      </trkpt>
      <trkpt lat="44.05714" lon="3.03342">
        <ele>711.842558</ele>
        <time>2026-02-05T15:31:57.452Z</time>
      </trkpt>
      <trkpt lat="44.05724" lon="3.03364">
        <ele>712.451167</ele>
        <time>2026-02-05T15:31:52.723Z</time>
      </trkpt>
      <trkpt lat="44.05708" lon="3.03407">
        <ele>713.597726</ele>
        <time>2026-02-05T15:31:45.503Z</time>
      </trkpt>
      <trkpt lat="44.05681" lon="3.03452">
        <ele>714.93794</ele>
        <time>2026-02-05T15:31:37.106Z</time>
      </trkpt>
      <trkpt lat="44.05674" lon="3.03483">
        <ele>715.723916</ele>
        <time>2026-02-05T15:31:32.203Z</time>
      </trkpt>
      <trkpt lat="44.05671" lon="3.03552">
        <ele>717.168456</ele>
        <time>2026-02-05T15:31:22.241Z</time>
      </trkpt>
      <trkpt lat="44.05665" lon="3.03591">
        <ele>717.941972</ele>
        <time>2026-02-05T15:31:16.231Z</time>
      </trkpt>
      <trkpt lat="44.05684" lon="3.03586">
        <ele>718.463288</ele>
        <time>2026-02-05T15:31:13.211Z</time>
      </trkpt>
      <trkpt lat="44.05703" lon="3.03599">
        <ele>719.030923</ele>
        <time>2026-02-05T15:31:09.846Z</time>
      </trkpt>
      <trkpt lat="44.05731" lon="3.03616">
        <ele>719.871473</ele>
        <time>2026-02-05T15:31:04.993Z</time>
      </trkpt>
      <trkpt lat="44.05761" lon="3.03628">
        <ele>720.734342</ele>
        <time>2026-02-05T15:31:00.139Z</time>
      </trkpt>
      <trkpt lat="44.05781" lon="3.03626">
        <ele>721.260053</ele>
        <time>2026-02-05T15:30:57.073Z</time>
      </trkpt>
      <trkpt lat="44.05803" lon="3.03617">
        <ele>721.643382</ele>
        <time>2026-02-05T15:30:53.555Z</time>
      </trkpt>
      <trkpt lat="44.05827" lon="3.03602">
        <ele>722.076756</ele>
        <time>2026-02-05T15:30:49.665Z</time>
      </trkpt>
      <trkpt lat="44.05864" lon="3.0359">
        <ele>722.703991</ele>
        <time>2026-02-05T15:30:43.749Z</time>
      </trkpt>
      <trkpt lat="44.05897" lon="3.03571">
        <ele>723.314381</ele>
        <time>2026-02-05T15:30:37.588Z</time>
      </trkpt>
      <trkpt lat="44.0593" lon="3.03547">
        <ele>723.928324</ele>
        <time>2026-02-05T15:30:30.251Z</time>
      </trkpt>
      <trkpt lat="44.05951" lon="3.0353">
        <ele>724.046325</ele>
        <time>2026-02-05T15:30:24.741Z</time>
      </trkpt>
      <trkpt lat="44.05959" lon="3.03519">
        <ele>723.696019</ele>
        <time>2026-02-05T15:30:21.899Z</time>
      </trkpt>
      <trkpt lat="44.05961" lon="3.0351">
        <ele>723.485202</ele>
        <time>2026-02-05T15:30:20.221Z</time>
      </trkpt>
      <trkpt lat="44.05969" lon="3.03515">
        <ele>723.221578</ele>
        <time>2026-02-05T15:30:17.221Z</time>
      </trkpt>
      <trkpt lat="44.0597" lon="3.03518">
        <ele>723.125998</ele>
        <time>2026-02-05T15:30:16.233Z</time>
      </trkpt>
      <trkpt lat="44.05986" lon="3.03514">
        <ele>722.61616</ele>
        <time>2026-02-05T15:30:10.057Z</time>
      </trkpt>
      <trkpt lat="44.06032" lon="3.03514">
        <ele>721.164457</ele>
        <time>2026-02-05T15:29:52.359Z</time>
      </trkpt>
      <trkpt lat="44.06051" lon="3.0351">
        <ele>720.570956</ele>
        <time>2026-02-05T15:29:39.501Z</time>
      </trkpt>
      <trkpt lat="44.0607" lon="3.03512">
        <ele>719.958548</ele>
        <time>2026-02-05T15:29:30.338Z</time>
      </trkpt>
      <trkpt lat="44.06082" lon="3.0352">
        <ele>719.560372</ele>
        <time>2026-02-05T15:29:20.733Z</time>
      </trkpt>
      <trkpt lat="44.06094" lon="3.03537">
        <ele>719.019622</ele>
        <time>2026-02-05T15:29:11.552Z</time>
      </trkpt>
      <trkpt lat="44.06105" lon="3.03548">
        <ele>718.600482</ele>
        <time>2026-02-05T15:29:04.739Z</time>
      </trkpt>
      <trkpt lat="44.06114" lon="3.03552">
        <ele>717.974982</ele>
        <time>2026-02-05T15:28:55.394Z</time>
      </trkpt>
      <trkpt lat="44.06119" lon="3.03551">
        <ele>717.646777</ele>
        <time>2026-02-05T15:28:52.715Z</time>
      </trkpt>
      <trkpt lat="44.06133" lon="3.03539">
        <ele>716.582534</ele>
        <time>2026-02-05T15:28:44.297Z</time>
      </trkpt>
      <trkpt lat="44.06141" lon="3.03538">
        <ele>716.070265</ele>
        <time>2026-02-05T15:28:38.810Z</time>
      </trkpt>
      <trkpt lat="44.06151" lon="3.03512">
        <ele>714.724225</ele>
        <time>2026-02-05T15:28:25.815Z</time>
      </trkpt>
      <trkpt lat="44.06163" lon="3.03504">
        <ele>713.855139</ele>
        <time>2026-02-05T15:28:18.682Z</time>
      </trkpt>
      <trkpt lat="44.06168" lon="3.03503">
        <ele>713.514067</ele>
        <time>2026-02-05T15:28:11.869Z</time>
      </trkpt>
      <trkpt lat="44.06181" lon="3.03492">
        <ele>712.544591</ele>
        <time>2026-02-05T15:28:03.562Z</time>
      </trkpt>
      <trkpt lat="44.06205" lon="3.03457">
        <ele>710.262089</ele>
        <time>2026-02-05T15:27:41.187Z</time>
      </trkpt>
      <trkpt lat="44.0622" lon="3.03441">
        <ele>709.034128</ele>
        <time>2026-02-05T15:27:29.109Z</time>
      </trkpt>
      <trkpt lat="44.06229" lon="3.03439">
        <ele>708.4491</ele>
        <time>2026-02-05T15:27:21.952Z</time>
      </trkpt>
      <trkpt lat="44.06262" lon="3.03454">
        <ele>706.214566</ele>
        <time>2026-02-05T15:26:58.465Z</time>
      </trkpt>
      <trkpt lat="44.06272" lon="3.03465">
        <ele>705.351034</ele>
        <time>2026-02-05T15:26:50.961Z</time>
      </trkpt>
      <trkpt lat="44.06281" lon="3.03479">
        <ele>704.510289</ele>
        <time>2026-02-05T15:26:43.103Z</time>
      </trkpt>
      <trkpt lat="44.06289" lon="3.03484">
        <ele>703.903583</ele>
        <time>2026-02-05T15:26:33.578Z</time>
      </trkpt>
      <trkpt lat="44.06297" lon="3.03494">
        <ele>703.163912</ele>
        <time>2026-02-05T15:26:26.920Z</time>
      </trkpt>
      <trkpt lat="44.06323" lon="3.03527">
        <ele>700.897197</ele>
        <time>2026-02-05T15:26:07.976Z</time>
      </trkpt>
      <trkpt lat="44.06333" lon="3.0356">
        <ele>699.229749</ele>
        <time>2026-02-05T15:25:50.864Z</time>
      </trkpt>
      <trkpt lat="44.06336" lon="3.036">
        <ele>697.335278</ele>
        <time>2026-02-05T15:25:30.879Z</time>
      </trkpt>
      <trkpt lat="44.06334" lon="3.03622">
        <ele>696.324231</ele>
        <time>2026-02-05T15:25:20.720Z</time>
      </trkpt>
      <trkpt lat="44.06338" lon="3.03666">
        <ele>694.459645</ele>
        <time>2026-02-05T15:25:00.111Z</time>
      </trkpt>
      <trkpt lat="44.06344" lon="3.03701">
        <ele>693.179019</ele>
        <time>2026-02-05T15:24:44.364Z</time>
      </trkpt>
      <trkpt lat="44.06349" lon="3.0371">
        <ele>692.806513</ele>
        <time>2026-02-05T15:24:39.746Z</time>
      </trkpt>
      <trkpt lat="44.06349" lon="3.03717">
        <ele>692.550964</ele>
        <time>2026-02-05T15:24:36.874Z</time>
      </trkpt>
      <trkpt lat="44.06346" lon="3.03753">
        <ele>691.27698</ele>
        <time>2026-02-05T15:24:21.915Z</time>
      </trkpt>
      <trkpt lat="44.0634" lon="3.03762">
        <ele>690.81652</ele>
        <time>2026-02-05T15:24:16.410Z</time>
      </trkpt>
      <trkpt lat="44.06339" lon="3.03773">
        <ele>690.42189</ele>
        <time>2026-02-05T15:24:12.378Z</time>
      </trkpt>
      <trkpt lat="44.06341" lon="3.03784">
        <ele>690.013742</ele>
        <time>2026-02-05T15:24:07.971Z</time>
      </trkpt>
      <trkpt lat="44.06348" lon="3.03795">
        <ele>689.462568</ele>
        <time>2026-02-05T15:24:01.938Z</time>
      </trkpt>
      <trkpt lat="44.06353" lon="3.03808">
        <ele>688.953128</ele>
        <time>2026-02-05T15:23:56.458Z</time>
      </trkpt>
      <trkpt lat="44.06355" lon="3.03858">
        <ele>687.16863</ele>
        <time>2026-02-05T15:23:37.394Z</time>
      </trkpt>
      <trkpt lat="44.06351" lon="3.03872">
        <ele>686.61705</ele>
        <time>2026-02-05T15:23:31.664Z</time>
      </trkpt>
      <trkpt lat="44.06339" lon="3.03888">
        <ele>685.979406</ele>
        <time>2026-02-05T15:23:23.047Z</time>
      </trkpt>
      <trkpt lat="44.06326" lon="3.03901">
        <ele>685.497528</ele>
        <time>2026-02-05T15:23:15.034Z</time>
      </trkpt>
      <trkpt lat="44.0632" lon="3.03949">
        <ele>684.386339</ele>
        <time>2026-02-05T15:22:57.496Z</time>
      </trkpt>
      <trkpt lat="44.0631" lon="3.03977">
        <ele>683.676991</ele>
        <time>2026-02-05T15:22:48.953Z</time>
      </trkpt>
      <trkpt lat="44.0631" lon="3.03985">
        <ele>683.51446</ele>
        <time>2026-02-05T15:22:47.052Z</time>
      </trkpt>
      <trkpt lat="44.06327" lon="3.03991">
        <ele>682.958004</ele>
        <time>2026-02-05T15:22:40.128Z</time>
      </trkpt>
      <trkpt lat="44.06355" lon="3.04012">
        <ele>681.962892</ele>
        <time>2026-02-05T15:22:26.129Z</time>
      </trkpt>
      <trkpt lat="44.0637" lon="3.04019">
        <ele>681.468502</ele>
        <time>2026-02-05T15:22:18.672Z</time>
      </trkpt>
      <trkpt lat="44.06386" lon="3.04035">
        <ele>680.841072</ele>
        <time>2026-02-05T15:22:08.312Z</time>
      </trkpt>
      <trkpt lat="44.064" lon="3.04058">
        <ele>679.987488</ele>
        <time>2026-02-05T15:21:57.113Z</time>
      </trkpt>
      <trkpt lat="44.06405" lon="3.04084">
        <ele>679.144553</ele>
        <time>2026-02-05T15:21:46.713Z</time>
      </trkpt>
      <trkpt lat="44.06421" lon="3.04105">
        <ele>678.173491</ele>
        <time>2026-02-05T15:21:34.063Z</time>
      </trkpt>
      <trkpt lat="44.06451" lon="3.04123">
        <ele>676.714694</ele>
        <time>2026-02-05T15:21:14.547Z</time>
      </trkpt>
      <trkpt lat="44.06465" lon="3.04142">
        <ele>675.847086</ele>
        <time>2026-02-05T15:21:03.085Z</time>
      </trkpt>
      <trkpt lat="44.06478" lon="3.04142">
        <ele>675.305801</ele>
        <time>2026-02-05T15:20:55.866Z</time>
      </trkpt>
      <trkpt lat="44.06493" lon="3.04151">
        <ele>674.542649</ele>
        <time>2026-02-05T15:20:45.843Z</time>
      </trkpt>
      <trkpt lat="44.06527" lon="3.04184">
        <ele>672.745688</ele>
        <time>2026-02-05T15:20:25.213Z</time>
      </trkpt>
      <trkpt lat="44.0654" lon="3.0419">
        <ele>673.051354</ele>
        <time>2026-02-05T15:20:14.634Z</time>
      </trkpt>
      <trkpt lat="44.06578" lon="3.0422">
        <ele>674.067888</ele>
        <time>2026-02-05T15:20:01.026Z</time>
      </trkpt>
      <trkpt lat="44.06588" lon="3.04246">
        <ele>674.561238</ele>
        <time>2026-02-05T15:19:51.259Z</time>
      </trkpt>
      <trkpt lat="44.0659" lon="3.04297">
        <ele>675.406336</ele>
        <time>2026-02-05T15:19:40.978Z</time>
      </trkpt>
      <trkpt lat="44.06591" lon="3.04301">
        <ele>675.49545</ele>
        <time>2026-02-05T15:19:35.285Z</time>
      </trkpt>
      <trkpt lat="44.06583" lon="3.04304">
        <ele>675.701</ele>
        <time>2026-02-05T15:19:33.550Z</time>
      </trkpt>
      <trkpt lat="44.06576" lon="3.043">
        <ele>675.865044</ele>
        <time>2026-02-05T15:19:31.790Z</time>
      </trkpt>
      <trkpt lat="44.06572" lon="3.04289">
        <ele>676.066327</ele>
        <time>2026-02-05T15:19:29.586Z</time>
      </trkpt>
      <trkpt lat="44.0656" lon="3.0429">
        <ele>676.34919</ele>
        <time>2026-02-05T15:19:23.004Z</time>
      </trkpt>
      <trkpt lat="44.06554" lon="3.04273">
        <ele>676.654476</ele>
        <time>2026-02-05T15:19:20.389Z</time>
      </trkpt>
      <trkpt lat="44.06551" lon="3.04271">
        <ele>676.735365</ele>
        <time>2026-02-05T15:19:19.649Z</time>
      </trkpt>
      <trkpt lat="44.06548" lon="3.04271">
        <ele>676.817566</ele>
        <time>2026-02-05T15:19:18.919Z</time>
      </trkpt>
      <trkpt lat="44.06531" lon="3.04317">
        <ele>681.602095</ele>
        <time>2026-02-05T15:19:11.338Z</time>
      </trkpt>
      <trkpt lat="44.06522" lon="3.04334">
        <ele>683.770833</ele>
        <time>2026-02-05T15:19:07.981Z</time>
      </trkpt>
      <trkpt lat="44.06514" lon="3.04336">
        <ele>684.981025</ele>
        <time>2026-02-05T15:19:06.340Z</time>
      </trkpt>
      <trkpt lat="44.06496" lon="3.04352">
        <ele>687.995055</ele>
        <time>2026-02-05T15:19:02.011Z</time>
      </trkpt>
      <trkpt lat="44.06483" lon="3.04375">
        <ele>690.953812</ele>
        <time>2026-02-05T15:18:59.308Z</time>
      </trkpt>
      <trkpt lat="44.06475" lon="3.04377">
        <ele>692.139813</ele>
        <time>2026-02-05T15:18:58.230Z</time>
      </trkpt>
      <trkpt lat="44.06465" lon="3.0437">
        <ele>693.733717</ele>
        <time>2026-02-05T15:18:56.789Z</time>
      </trkpt>
      <trkpt lat="44.06456" lon="3.0437">
        <ele>694.987814</ele>
        <time>2026-02-05T15:18:55.555Z</time>
      </trkpt>
      <trkpt lat="44.06445" lon="3.04377">
        <ele>696.718876</ele>
        <time>2026-02-05T15:18:53.984Z</time>
      </trkpt>
      <trkpt lat="44.06432" lon="3.04396">
        <ele>699.484687</ele>
        <time>2026-02-05T15:18:50.082Z</time>
      </trkpt>
      <trkpt lat="44.06416" lon="3.04401">
        <ele>701.841038</ele>
        <time>2026-02-05T15:18:46.641Z</time>
      </trkpt>
      <trkpt lat="44.06414" lon="3.04398">
        <ele>702.207044</ele>
        <time>2026-02-05T15:18:46.144Z</time>
      </trkpt>
      <trkpt lat="44.06419" lon="3.04383">
        <ele>704.44644</ele>
        <time>2026-02-05T15:18:43.871Z</time>
      </trkpt>
      <trkpt lat="44.0642" lon="3.04363">
        <ele>707.32047</ele>
        <time>2026-02-05T15:18:41.035Z</time>
      </trkpt>
      <trkpt lat="44.06419" lon="3.04362">
        <ele>707.547446</ele>
        <time>2026-02-05T15:18:40.820Z</time>
      </trkpt>
      <trkpt lat="44.06409" lon="3.04348">
        <ele>710.374973</ele>
        <time>2026-02-05T15:18:38.080Z</time>
      </trkpt>
      <trkpt lat="44.06398" lon="3.04342">
        <ele>712.767943</ele>
        <time>2026-02-05T15:18:35.761Z</time>
      </trkpt>
      <trkpt lat="44.06391" lon="3.04346">
        <ele>714.289734</ele>
        <time>2026-02-05T15:18:34.282Z</time>
      </trkpt>
      <trkpt lat="44.06367" lon="3.04376">
        <ele>720.840359</ele>
        <time>2026-02-05T15:18:27.993Z</time>
      </trkpt>
      <trkpt lat="44.0636" lon="3.0438">
        <ele>722.26233</ele>
        <time>2026-02-05T15:18:26.608Z</time>
      </trkpt>
      <trkpt lat="44.06357" lon="3.04398">
        <ele>724.956218</ele>
        <time>2026-02-05T15:18:23.996Z</time>
      </trkpt>
      <trkpt lat="44.0635" lon="3.04404">
        <ele>726.596222</ele>
        <time>2026-02-05T15:18:22.414Z</time>
      </trkpt>
      <trkpt lat="44.06341" lon="3.04423">
        <ele>729.964553</ele>
        <time>2026-02-05T15:18:19.047Z</time>
      </trkpt>
      <trkpt lat="44.06307" lon="3.04468">
        <ele>739.216293</ele>
        <time>2026-02-05T15:18:09.799Z</time>
      </trkpt>
      <trkpt lat="44.06297" lon="3.04489">
        <ele>741.789307</ele>
        <time>2026-02-05T15:18:06.116Z</time>
      </trkpt>
      <trkpt lat="44.06289" lon="3.04485">
        <ele>742.924433</ele>
        <time>2026-02-05T15:18:04.484Z</time>
      </trkpt>
      <trkpt lat="44.06285" lon="3.04495">
        <ele>744.150199</ele>
        <time>2026-02-05T15:18:02.787Z</time>
      </trkpt>
      <trkpt lat="44.06267" lon="3.04516">
        <ele>747.390774</ele>
        <time>2026-02-05T15:17:58.108Z</time>
      </trkpt>
      <trkpt lat="44.06262" lon="3.04527">
        <ele>748.722642</ele>
        <time>2026-02-05T15:17:56.284Z</time>
      </trkpt>
      <trkpt lat="44.06238" lon="3.04621">
        <ele>758.859433</ele>
        <time>2026-02-05T15:17:41.871Z</time>
      </trkpt>
      <trkpt lat="44.0623" lon="3.04668">
        <ele>763.712783</ele>
        <time>2026-02-05T15:17:34.234Z</time>
      </trkpt>
      <trkpt lat="44.06194" lon="3.04728">
        <ele>765.502653</ele>
        <time>2026-02-05T15:17:19.851Z</time>
      </trkpt>
      <trkpt lat="44.06172" lon="3.04757">
        <ele>766.239387</ele>
        <time>2026-02-05T15:17:12.067Z</time>
      </trkpt>
      <trkpt lat="44.06161" lon="3.04776">
        <ele>766.687182</ele>
        <time>2026-02-05T15:17:06.274Z</time>
      </trkpt>
      <trkpt lat="44.06157" lon="3.04789">
        <ele>766.944581</ele>
        <time>2026-02-05T15:17:03.917Z</time>
      </trkpt>
      <trkpt lat="44.06146" lon="3.04849">
        <ele>768.068338</ele>
        <time>2026-02-05T15:16:49.447Z</time>
      </trkpt>
      <trkpt lat="44.06135" lon="3.0488">
        <ele>768.638872</ele>
        <time>2026-02-05T15:16:41.751Z</time>
      </trkpt>
      <trkpt lat="44.06133" lon="3.04904">
        <ele>767.881206</ele>
        <time>2026-02-05T15:16:34.440Z</time>
      </trkpt>
      <trkpt lat="44.06126" lon="3.04939">
        <ele>766.733615</ele>
        <time>2026-02-05T15:16:25.429Z</time>
      </trkpt>
      <trkpt lat="44.06124" lon="3.04971">
        <ele>765.734718</ele>
        <time>2026-02-05T15:16:13.920Z</time>
      </trkpt>
      <trkpt lat="44.0613" lon="3.05032">
        <ele>763.770454</ele>
        <time>2026-02-05T15:15:49.776Z</time>
      </trkpt>
      <trkpt lat="44.06139" lon="3.05046">
        <ele>763.206591</ele>
        <time>2026-02-05T15:15:41.723Z</time>
      </trkpt>
      <trkpt lat="44.06153" lon="3.05059">
        <ele>762.476215</ele>
        <time>2026-02-05T15:15:30.920Z</time>
      </trkpt>
      <trkpt lat="44.06187" lon="3.05066">
        <ele>760.970583</ele>
        <time>2026-02-05T15:15:07.841Z</time>
      </trkpt>
      <trkpt lat="44.06201" lon="3.05072">
        <ele>759.525308</ele>
        <time>2026-02-05T15:14:56.863Z</time>
      </trkpt>
      <trkpt lat="44.06213" lon="3.05084">
        <ele>757.951559</ele>
        <time>2026-02-05T15:14:46.371Z</time>
      </trkpt>
      <trkpt lat="44.06214" lon="3.05101">
        <ele>756.60731</ele>
        <time>2026-02-05T15:14:37.552Z</time>
      </trkpt>
      <trkpt lat="44.06211" lon="3.05126">
        <ele>754.525617</ele>
        <time>2026-02-05T15:14:23.109Z</time>
      </trkpt>
      <trkpt lat="44.06213" lon="3.05151">
        <ele>752.564526</ele>
        <time>2026-02-05T15:14:09.412Z</time>
      </trkpt>
      <trkpt lat="44.06212" lon="3.05161">
        <ele>751.74543</ele>
        <time>2026-02-05T15:14:03.437Z</time>
      </trkpt>
      <trkpt lat="44.06215" lon="3.05174">
        <ele>750.609135</ele>
        <time>2026-02-05T15:13:55.080Z</time>
      </trkpt>
      <trkpt lat="44.06229" lon="3.05195">
        <ele>748.357439</ele>
        <time>2026-02-05T15:13:35.552Z</time>
      </trkpt>
      <trkpt lat="44.06232" lon="3.05204">
        <ele>747.554227</ele>
        <time>2026-02-05T15:13:28.547Z</time>
      </trkpt>
      <trkpt lat="44.06233" lon="3.05288">
        <ele>740.80453</ele>
        <time>2026-02-05T15:12:25.608Z</time>
      </trkpt>
      <trkpt lat="44.06238" lon="3.0534">
        <ele>736.158663</ele>
        <time>2026-02-05T15:11:47.121Z</time>
      </trkpt>
      <trkpt lat="44.06248" lon="3.05364">
        <ele>733.596971</ele>
        <time>2026-02-05T15:11:26.720Z</time>
      </trkpt>
      <trkpt lat="44.06266" lon="3.05381">
        <ele>730.844124</ele>
        <time>2026-02-05T15:11:03.994Z</time>
      </trkpt>
      <trkpt lat="44.06287" lon="3.05403">
        <ele>727.617433</ele>
        <time>2026-02-05T15:10:40.299Z</time>
      </trkpt>
      <trkpt lat="44.06304" lon="3.0542">
        <ele>724.936324</ele>
        <time>2026-02-05T15:10:20.437Z</time>
      </trkpt>
      <trkpt lat="44.06341" lon="3.05433">
        <ele>720.143548</ele>
        <time>2026-02-05T15:09:46.754Z</time>
      </trkpt>
      <trkpt lat="44.06362" lon="3.05438">
        <ele>717.874644</ele>
        <time>2026-02-05T15:09:28.096Z</time>
      </trkpt>
      <trkpt lat="44.06392" lon="3.05461">
        <ele>715.798523</ele>
        <time>2026-02-05T15:08:58.215Z</time>
      </trkpt>
      <trkpt lat="44.06433" lon="3.05524">
        <ele>712.132645</ele>
        <time>2026-02-05T15:08:17.629Z</time>
      </trkpt>
      <trkpt lat="44.06447" lon="3.05559">
        <ele>710.403119</ele>
        <time>2026-02-05T15:08:03.221Z</time>
      </trkpt>
      <trkpt lat="44.06455" lon="3.05587">
        <ele>709.068818</ele>
        <time>2026-02-05T15:07:53.682Z</time>
      </trkpt>
      <trkpt lat="44.06468" lon="3.05597">
        <ele>708.153508</ele>
        <time>2026-02-05T15:07:45.707Z</time>
      </trkpt>
      <trkpt lat="44.06476" lon="3.05604">
        <ele>707.633727</ele>
        <time>2026-02-05T15:07:42.718Z</time>
      </trkpt>
      <trkpt lat="44.06487" lon="3.05606">
        <ele>707.478636</ele>
        <time>2026-02-05T15:07:38.450Z</time>
      </trkpt>
      <trkpt lat="44.06507" lon="3.05629">
        <ele>707.773535</ele>
        <time>2026-02-05T15:07:28.825Z</time>
      </trkpt>
      <trkpt lat="44.06521" lon="3.05646">
        <ele>707.976721</ele>
        <time>2026-02-05T15:07:22.753Z</time>
      </trkpt>
      <trkpt lat="44.06534" lon="3.05675">
        <ele>708.257604</ele>
        <time>2026-02-05T15:07:15.705Z</time>
      </trkpt>
      <trkpt lat="44.06549" lon="3.05694">
        <ele>708.482655</ele>
        <time>2026-02-05T15:07:09.221Z</time>
      </trkpt>
      <trkpt lat="44.06554" lon="3.05689">
        <ele>708.554622</ele>
        <time>2026-02-05T15:07:07.649Z</time>
      </trkpt>
      <trkpt lat="44.06571" lon="3.05686">
        <ele>708.751748</ele>
        <time>2026-02-05T15:07:02.848Z</time>
      </trkpt>
      <trkpt lat="44.06584" lon="3.05694">
        <ele>708.90639</ele>
        <time>2026-02-05T15:06:58.843Z</time>
      </trkpt>
      <trkpt lat="44.06591" lon="3.057">
        <ele>709.003571</ele>
        <time>2026-02-05T15:06:56.733Z</time>
      </trkpt>
      <trkpt lat="44.06593" lon="3.05769">
        <ele>709.947632</ele>
        <time>2026-02-05T15:06:43.938Z</time>
      </trkpt>
      <trkpt lat="44.06595" lon="3.05778">
        <ele>710.221293</ele>
        <time>2026-02-05T15:06:42.139Z</time>
      </trkpt>
      <trkpt lat="44.06604" lon="3.05793">
        <ele>710.789129</ele>
        <time>2026-02-05T15:06:38.794Z</time>
      </trkpt>
      <trkpt lat="44.06629" lon="3.05788">
        <ele>711.814529</ele>
        <time>2026-02-05T15:06:35.057Z</time>
      </trkpt>
      <trkpt lat="44.06645" lon="3.05791">
        <ele>712.472381</ele>
        <time>2026-02-05T15:06:32.777Z</time>
      </trkpt>
      <trkpt lat="44.06669" lon="3.05794">
        <ele>713.436771</ele>
        <time>2026-02-05T15:06:29.322Z</time>
      </trkpt>
      <trkpt lat="44.06739" lon="3.05813">
        <ele>716.367575</ele>
        <time>2026-02-05T15:06:18.848Z</time>
      </trkpt>
      <trkpt lat="44.06783" lon="3.05831">
        <ele>718.207198</ele>
        <time>2026-02-05T15:06:11.942Z</time>
      </trkpt>
      <trkpt lat="44.06828" lon="3.05839">
        <ele>719.997093</ele>
        <time>2026-02-05T15:06:05.187Z</time>
      </trkpt>
      <trkpt lat="44.06885" lon="3.05833">
        <ele>722.282864</ele>
        <time>2026-02-05T15:05:56.736Z</time>
      </trkpt>
      <trkpt lat="44.06965" lon="3.0582">
        <ele>725.857825</ele>
        <time>2026-02-05T15:05:45.134Z</time>
      </trkpt>
      <trkpt lat="44.06979" lon="3.05819">
        <ele>726.524207</ele>
        <time>2026-02-05T15:05:43.180Z</time>
      </trkpt>
      <trkpt lat="44.06991" lon="3.05822">
        <ele>727.126452</ele>
        <time>2026-02-05T15:05:41.440Z</time>
      </trkpt>
      <trkpt lat="44.07014" lon="3.05836">
        <ele>728.330908</ele>
        <time>2026-02-05T15:05:37.963Z</time>
      </trkpt>
      <trkpt lat="44.07019" lon="3.05844">
        <ele>728.716828</ele>
        <time>2026-02-05T15:05:36.861Z</time>
      </trkpt>
      <trkpt lat="44.07033" lon="3.05859">
        <ele>729.579505</ele>
        <time>2026-02-05T15:05:32.654Z</time>
      </trkpt>
      <trkpt lat="44.07043" lon="3.0587">
        <ele>730.208134</ele>
        <time>2026-02-05T15:05:29.563Z</time>
      </trkpt>
      <trkpt lat="44.07038" lon="3.05893">
        <ele>731.051256</ele>
        <time>2026-02-05T15:05:25.468Z</time>
      </trkpt>
      <trkpt lat="44.07034" lon="3.059">
        <ele>731.345787</ele>
        <time>2026-02-05T15:05:23.981Z</time>
      </trkpt>
      <trkpt lat="44.07033" lon="3.0598">
        <ele>733.05206</ele>
        <time>2026-02-05T15:05:15.539Z</time>
      </trkpt>
      <trkpt lat="44.07033" lon="3.05993">
        <ele>733.168119</ele>
        <time>2026-02-05T15:05:14.200Z</time>
      </trkpt>
      <trkpt lat="44.07052" lon="3.06093">
        <ele>734.113037</ele>
        <time>2026-02-05T15:05:01.866Z</time>
      </trkpt>
      <trkpt lat="44.07061" lon="3.06135">
        <ele>734.513335</ele>
        <time>2026-02-05T15:04:55.261Z</time>
      </trkpt>
      <trkpt lat="44.07066" lon="3.06151">
        <ele>734.681858</ele>
        <time>2026-02-05T15:04:52.014Z</time>
      </trkpt>
      <trkpt lat="44.07068" lon="3.06155">
        <ele>734.717264</ele>
        <time>2026-02-05T15:04:50.919Z</time>
      </trkpt>
      <trkpt lat="44.07091" lon="3.06199">
        <ele>734.216254</ele>
        <time>2026-02-05T15:04:39.453Z</time>
      </trkpt>
      <trkpt lat="44.07158" lon="3.06304">
        <ele>730.562707</ele>
        <time>2026-02-05T15:04:01.429Z</time>
      </trkpt>
      <trkpt lat="44.07169" lon="3.06314">
        <ele>730.07782</ele>
        <time>2026-02-05T15:03:55.080Z</time>
      </trkpt>
      <trkpt lat="44.07168" lon="3.06321">
        <ele>729.909776</ele>
        <time>2026-02-05T15:03:52.746Z</time>
      </trkpt>
      <trkpt lat="44.07181" lon="3.06344">
        <ele>729.171748</ele>
        <time>2026-02-05T15:03:43.703Z</time>
      </trkpt>
      <trkpt lat="44.07194" lon="3.06387">
        <ele>727.645362</ele>
        <time>2026-02-05T15:03:28.616Z</time>
      </trkpt>
      <trkpt lat="44.07198" lon="3.06398">
        <ele>727.164174</ele>
        <time>2026-02-05T15:03:25.012Z</time>
      </trkpt>
      <trkpt lat="44.07206" lon="3.06423">
        <ele>726.061454</ele>
        <time>2026-02-05T15:03:15.544Z</time>
      </trkpt>
      <trkpt lat="44.07217" lon="3.06425">
        <ele>725.439417</ele>
        <time>2026-02-05T15:03:08.608Z</time>
      </trkpt>
      <trkpt lat="44.07223" lon="3.06434">
        <ele>724.936183</ele>
        <time>2026-02-05T15:03:03.629Z</time>
      </trkpt>
      <trkpt lat="44.07233" lon="3.06451">
        <ele>724.045969</ele>
        <time>2026-02-05T15:02:53.761Z</time>
      </trkpt>
      <trkpt lat="44.07252" lon="3.06472">
        <ele>722.671266</ele>
        <time>2026-02-05T15:02:38.991Z</time>
      </trkpt>
      <trkpt lat="44.07308" lon="3.06529">
        <ele>718.729051</ele>
        <time>2026-02-05T15:01:56.022Z</time>
      </trkpt>
      <trkpt lat="44.07313" lon="3.06543">
        <ele>718.15711</ele>
        <time>2026-02-05T15:01:48.914Z</time>
      </trkpt>
      <trkpt lat="44.07315" lon="3.06564">
        <ele>717.536583</ele>
        <time>2026-02-05T15:01:38.401Z</time>
      </trkpt>
      <trkpt lat="44.07314" lon="3.06637">
        <ele>715.395277</ele>
        <time>2026-02-05T15:01:08.542Z</time>
      </trkpt>
      <trkpt lat="44.07322" lon="3.06672">
        <ele>714.31236</ele>
        <time>2026-02-05T15:00:54.358Z</time>
      </trkpt>
      <trkpt lat="44.07327" lon="3.067">
        <ele>713.462914</ele>
        <time>2026-02-05T15:00:44.458Z</time>
      </trkpt>
      <trkpt lat="44.07328" lon="3.06717">
        <ele>712.96531</ele>
        <time>2026-02-05T15:00:37.789Z</time>
      </trkpt>
      <trkpt lat="44.07333" lon="3.06733">
        <ele>712.465725</ele>
        <time>2026-02-05T15:00:32.805Z</time>
      </trkpt>
      <trkpt lat="44.07355" lon="3.0676">
        <ele>711.258994</ele>
        <time>2026-02-05T15:00:19.101Z</time>
      </trkpt>
      <trkpt lat="44.07371" lon="3.06793">
        <ele>710.291951</ele>
        <time>2026-02-05T15:00:08.639Z</time>
      </trkpt>
      <trkpt lat="44.07397" lon="3.06827">
        <ele>709.1531</ele>
        <time>2026-02-05T14:59:54.312Z</time>
      </trkpt>
      <trkpt lat="44.07425" lon="3.06858">
        <ele>708.015869</ele>
        <time>2026-02-05T14:59:36.807Z</time>
      </trkpt>
      <trkpt lat="44.07435" lon="3.06874">
        <ele>707.521471</ele>
        <time>2026-02-05T14:59:28.090Z</time>
      </trkpt>
      <trkpt lat="44.07449" lon="3.06897">
        <ele>706.847481</ele>
        <time>2026-02-05T14:59:18.016Z</time>
      </trkpt>
      <trkpt lat="44.0745" lon="3.06909">
        <ele>706.577591</ele>
        <time>2026-02-05T14:59:12.427Z</time>
      </trkpt>
      <trkpt lat="44.07458" lon="3.06924">
        <ele>706.154082</ele>
        <time>2026-02-05T14:59:06.976Z</time>
      </trkpt>
      <trkpt lat="44.0747" lon="3.06929">
        <ele>705.760048</ele>
        <time>2026-02-05T14:59:01.407Z</time>
      </trkpt>
      <trkpt lat="44.07475" lon="3.06927">
        <ele>705.609102</ele>
        <time>2026-02-05T14:58:57.057Z</time>
      </trkpt>
      <trkpt lat="44.07479" lon="3.06918">
        <ele>705.350584</ele>
        <time>2026-02-05T14:58:53.312Z</time>
      </trkpt>
      <trkpt lat="44.0748" lon="3.06908">
        <ele>705.01643</ele>
        <time>2026-02-05T14:58:50.257Z</time>
      </trkpt>
      <trkpt lat="44.0749" lon="3.06892">
        <ele>704.023076</ele>
        <time>2026-02-05T14:58:43.506Z</time>
      </trkpt>
      <trkpt lat="44.07483" lon="3.06893">
        <ele>703.563316</ele>
        <time>2026-02-05T14:58:36.670Z</time>
      </trkpt>
      <trkpt lat="44.07473" lon="3.069">
        <ele>702.838834</ele>
        <time>2026-02-05T14:58:32.101Z</time>
      </trkpt>
      <trkpt lat="44.07471" lon="3.06899">
        <ele>702.677612</ele>
        <time>2026-02-05T14:58:30.863Z</time>
      </trkpt>
      <trkpt lat="44.0747" lon="3.06896">
        <ele>702.554873</ele>
        <time>2026-02-05T14:58:29.961Z</time>
      </trkpt>
      <trkpt lat="44.07474" lon="3.0689">
        <ele>702.176982</ele>
        <time>2026-02-05T14:58:27.226Z</time>
      </trkpt>
      <trkpt lat="44.07478" lon="3.06882">
        <ele>701.747212</ele>
        <time>2026-02-05T14:58:24.285Z</time>
      </trkpt>
      <trkpt lat="44.07481" lon="3.06847">
        <ele>700.118612</ele>
        <time>2026-02-05T14:58:08.598Z</time>
      </trkpt>
      <trkpt lat="44.07478" lon="3.06834">
        <ele>699.540825</ele>
        <time>2026-02-05T14:58:04.063Z</time>
      </trkpt>
      <trkpt lat="44.07472" lon="3.06821">
        <ele>698.792402</ele>
        <time>2026-02-05T14:57:54.555Z</time>
      </trkpt>
      <trkpt lat="44.07445" lon="3.06783">
        <ele>696.365274</ele>
        <time>2026-02-05T14:57:28.401Z</time>
      </trkpt>
      <trkpt lat="44.0744" lon="3.06765">
        <ele>695.491846</ele>
        <time>2026-02-05T14:57:18.596Z</time>
      </trkpt>
      <trkpt lat="44.07442" lon="3.0675">
        <ele>694.826365</ele>
        <time>2026-02-05T14:57:10.713Z</time>
      </trkpt>
      <trkpt lat="44.07447" lon="3.06741">
        <ele>694.266765</ele>
        <time>2026-02-05T14:57:01.636Z</time>
      </trkpt>
      <trkpt lat="44.0746" lon="3.06728">
        <ele>692.884085</ele>
        <time>2026-02-05T14:56:50.450Z</time>
      </trkpt>
      <trkpt lat="44.07481" lon="3.06716">
        <ele>690.48697</ele>
        <time>2026-02-05T14:56:34.720Z</time>
      </trkpt>
      <trkpt lat="44.07551" lon="3.06696">
        <ele>682.684143</ele>
        <time>2026-02-05T14:55:40.047Z</time>
      </trkpt>
      <trkpt lat="44.07594" lon="3.06692">
        <ele>677.979078</ele>
        <time>2026-02-05T14:55:00.516Z</time>
      </trkpt>
      <trkpt lat="44.07629" lon="3.06695">
        <ele>674.228039</ele>
        <time>2026-02-05T14:54:27.027Z</time>
      </trkpt>
      <trkpt lat="44.07637" lon="3.06682">
        <ele>672.288327</ele>
        <time>2026-02-05T14:54:14.614Z</time>
      </trkpt>
      <trkpt lat="44.07664" lon="3.06659">
        <ele>667.361646</ele>
        <time>2026-02-05T14:53:33.887Z</time>
      </trkpt>
      <trkpt lat="44.07717" lon="3.06586">
        <ele>655.823213</ele>
        <time>2026-02-05T14:52:04.942Z</time>
      </trkpt>
      <trkpt lat="44.07746" lon="3.06536">
        <ele>648.733833</ele>
        <time>2026-02-05T14:51:18.327Z</time>
      </trkpt>
      <trkpt lat="44.07758" lon="3.06521">
        <ele>646.287431</ele>
        <time>2026-02-05T14:51:03.792Z</time>
      </trkpt>
      <trkpt lat="44.07759" lon="3.06515">
        <ele>645.842061</ele>
        <time>2026-02-05T14:50:57.491Z</time>
      </trkpt>
      <trkpt lat="44.07705" lon="3.06522">
        <ele>640.046137</ele>
        <time>2026-02-05T14:50:10.600Z</time>
      </trkpt>
      <trkpt lat="44.07679" lon="3.0654">
        <ele>636.908686</ele>
        <time>2026-02-05T14:49:45.481Z</time>
      </trkpt>
      <trkpt lat="44.07653" lon="3.06549">
        <ele>634.070997</ele>
        <time>2026-02-05T14:49:20.858Z</time>
      </trkpt>
      <trkpt lat="44.07629" lon="3.06562">
        <ele>631.303295</ele>
        <time>2026-02-05T14:49:04.884Z</time>
      </trkpt>
      <trkpt lat="44.07612" lon="3.06569">
        <ele>629.409189</ele>
        <time>2026-02-05T14:48:49.695Z</time>
      </trkpt>
      <trkpt lat="44.07591" lon="3.06568">
        <ele>627.143948</ele>
        <time>2026-02-05T14:48:35.016Z</time>
      </trkpt>
      <trkpt lat="44.07569" lon="3.06556">
        <ele>624.315794</ele>
        <time>2026-02-05T14:48:19.264Z</time>
      </trkpt>
      <trkpt lat="44.07556" lon="3.06555">
        <ele>622.651568</ele>
        <time>2026-02-05T14:48:08.210Z</time>
      </trkpt>
      <trkpt lat="44.0755" lon="3.06548">
        <ele>621.743782</ele>
        <time>2026-02-05T14:48:02.616Z</time>
      </trkpt>
      <trkpt lat="44.07547" lon="3.06534">
        <ele>620.453837</ele>
        <time>2026-02-05T14:47:54.660Z</time>
      </trkpt>
      <trkpt lat="44.07544" lon="3.06504">
        <ele>617.751624</ele>
        <time>2026-02-05T14:47:33.202Z</time>
      </trkpt>
      <trkpt lat="44.0755" lon="3.06438">
        <ele>611.888095</ele>
        <time>2026-02-05T14:46:51.159Z</time>
      </trkpt>
      <trkpt lat="44.07588" lon="3.06328">
        <ele>599.49733</ele>
        <time>2026-02-05T14:45:13.430Z</time>
      </trkpt>
      <trkpt lat="44.07588" lon="3.06308">
        <ele>597.040501</ele>
        <time>2026-02-05T14:44:54.373Z</time>
      </trkpt>
      <trkpt lat="44.07584" lon="3.06298">
        <ele>595.604372</ele>
        <time>2026-02-05T14:44:45.711Z</time>
      </trkpt>
      <trkpt lat="44.07574" lon="3.06286">
        <ele>593.179507</ele>
        <time>2026-02-05T14:44:25.358Z</time>
      </trkpt>
      <trkpt lat="44.07569" lon="3.06273">
        <ele>591.41692</ele>
        <time>2026-02-05T14:44:11.410Z</time>
      </trkpt>
      <trkpt lat="44.07574" lon="3.06225">
        <ele>585.358393</ele>
        <time>2026-02-05T14:43:26.151Z</time>
      </trkpt>
      <trkpt lat="44.0759" lon="3.06158">
        <ele>576.617058</ele>
        <time>2026-02-05T14:42:27.874Z</time>
      </trkpt>
      <trkpt lat="44.07591" lon="3.06128">
        <ele>573.045552</ele>
        <time>2026-02-05T14:42:02.746Z</time>
      </trkpt>
      <trkpt lat="44.07598" lon="3.06088">
        <ele>569.203986</ele>
        <time>2026-02-05T14:41:33.114Z</time>
      </trkpt>
      <trkpt lat="44.07592" lon="3.06002">
        <ele>561.01815</ele>
        <time>2026-02-05T14:40:30.399Z</time>
      </trkpt>
      <trkpt lat="44.07591" lon="3.05995">
        <ele>560.266395</ele>
        <time>2026-02-05T14:40:24.483Z</time>
      </trkpt>
      <trkpt lat="44.0759" lon="3.05989">
        <ele>559.745769</ele>
        <time>2026-02-05T14:40:20.442Z</time>
      </trkpt>
      <trkpt lat="44.07583" lon="3.05973">
        <ele>557.980426</ele>
        <time>2026-02-05T14:40:10.422Z</time>
      </trkpt>
      <trkpt lat="44.07585" lon="3.05967">
        <ele>557.373193</ele>
        <time>2026-02-05T14:40:03.697Z</time>
      </trkpt>
      <trkpt lat="44.07598" lon="3.05979">
        <ele>555.236386</ele>
        <time>2026-02-05T14:39:48.006Z</time>
      </trkpt>
      <trkpt lat="44.07618" lon="3.0601">
        <ele>551.297278</ele>
        <time>2026-02-05T14:39:25.519Z</time>
      </trkpt>
      <trkpt lat="44.07626" lon="3.06031">
        <ele>549.264611</ele>
        <time>2026-02-05T14:39:16.481Z</time>
      </trkpt>
      <trkpt lat="44.07637" lon="3.06077">
        <ele>545.40037</ele>
        <time>2026-02-05T14:38:53.606Z</time>
      </trkpt>
      <trkpt lat="44.07645" lon="3.06096">
        <ele>543.650773</ele>
        <time>2026-02-05T14:38:40.233Z</time>
      </trkpt>
      <trkpt lat="44.07664" lon="3.0613">
        <ele>540.256917</ele>
        <time>2026-02-05T14:38:17.052Z</time>
      </trkpt>
      <trkpt lat="44.07672" lon="3.06151">
        <ele>538.361866</ele>
        <time>2026-02-05T14:38:02.012Z</time>
      </trkpt>
      <trkpt lat="44.0768" lon="3.0617">
        <ele>536.581938</ele>
        <time>2026-02-05T14:37:51.960Z</time>
      </trkpt>
      <trkpt lat="44.07688" lon="3.06183">
        <ele>535.287352</ele>
        <time>2026-02-05T14:37:42.580Z</time>
      </trkpt>
      <trkpt lat="44.07694" lon="3.06185">
        <ele>534.603517</ele>
        <time>2026-02-05T14:37:38.003Z</time>
      </trkpt>
      <trkpt lat="44.07696" lon="3.06183">
        <ele>534.312709</ele>
        <time>2026-02-05T14:37:34.989Z</time>
      </trkpt>
      <trkpt lat="44.07697" lon="3.06172">
        <ele>533.415561</ele>
        <time>2026-02-05T14:37:29.787Z</time>
      </trkpt>
      <trkpt lat="44.07687" lon="3.06137">
        <ele>530.479361</ele>
        <time>2026-02-05T14:37:09.143Z</time>
      </trkpt>
      <trkpt lat="44.07684" lon="3.06126">
        <ele>529.332005</ele>
        <time>2026-02-05T14:37:02.675Z</time>
      </trkpt>
      <trkpt lat="44.07673" lon="3.06076">
        <ele>524.416396</ele>
        <time>2026-02-05T14:36:32.978Z</time>
      </trkpt>
      <trkpt lat="44.07672" lon="3.06056">
        <ele>522.488955</ele>
        <time>2026-02-05T14:36:21.782Z</time>
      </trkpt>
      <trkpt lat="44.07675" lon="3.06013">
        <ele>518.331124</ele>
        <time>2026-02-05T14:35:54.230Z</time>
      </trkpt>
      <trkpt lat="44.07689" lon="3.05944">
        <ele>511.492933</ele>
        <time>2026-02-05T14:35:06.285Z</time>
      </trkpt>
      <trkpt lat="44.07697" lon="3.05915">
        <ele>508.600095</ele>
        <time>2026-02-05T14:34:46.598Z</time>
      </trkpt>
      <trkpt lat="44.07716" lon="3.05875">
        <ele>504.129858</ele>
        <time>2026-02-05T14:34:13.195Z</time>
      </trkpt>
      <trkpt lat="44.07736" lon="3.05848">
        <ele>500.630171</ele>
        <time>2026-02-05T14:33:48.889Z</time>
      </trkpt>
      <trkpt lat="44.07756" lon="3.05831">
        <ele>497.628477</ele>
        <time>2026-02-05T14:33:25.983Z</time>
      </trkpt>
      <trkpt lat="44.07854" lon="3.05827">
        <ele>485.378697</ele>
        <time>2026-02-05T14:32:08.476Z</time>
      </trkpt>
      <trkpt lat="44.0789" lon="3.05811">
        <ele>482.079466</ele>
        <time>2026-02-05T14:31:39.945Z</time>
      </trkpt>
      <trkpt lat="44.07915" lon="3.05796">
        <ele>480.232484</ele>
        <time>2026-02-05T14:31:21.958Z</time>
      </trkpt>
      <trkpt lat="44.07956" lon="3.05786">
        <ele>477.406752</ele>
        <time>2026-02-05T14:31:00.578Z</time>
      </trkpt>
      <trkpt lat="44.08006" lon="3.05762">
        <ele>473.807231</ele>
        <time>2026-02-05T14:30:37.338Z</time>
      </trkpt>
      <trkpt lat="44.08015" lon="3.0575">
        <ele>472.935021</ele>
        <time>2026-02-05T14:30:30.909Z</time>
      </trkpt>
      <trkpt lat="44.08078" lon="3.05776">
        <ele>469.049739</ele>
        <time>2026-02-05T14:30:05.162Z</time>
      </trkpt>
      <trkpt lat="44.081" lon="3.05789">
        <ele>467.710105</ele>
        <time>2026-02-05T14:29:55.782Z</time>
      </trkpt>
      <trkpt lat="44.08155" lon="3.05788">
        <ele>464.610754</ele>
        <time>2026-02-05T14:29:28.971Z</time>
      </trkpt>
      <trkpt lat="44.08194" lon="3.05796">
        <ele>462.375046</ele>
        <time>2026-02-05T14:29:06.955Z</time>
      </trkpt>
      <trkpt lat="44.08211" lon="3.0579">
        <ele>461.275764</ele>
        <time>2026-02-05T14:28:56.991Z</time>
      </trkpt>
      <trkpt lat="44.08243" lon="3.05791">
        <ele>458.176043</ele>
        <time>2026-02-05T14:28:38.659Z</time>
      </trkpt>
      <trkpt lat="44.08276" lon="3.05798">
        <ele>454.999549</ele>
        <time>2026-02-05T14:28:18.185Z</time>
      </trkpt>
      <trkpt lat="44.08305" lon="3.05812">
        <ele>452.063708</ele>
        <time>2026-02-05T14:27:57.348Z</time>
      </trkpt>
      <trkpt lat="44.0829" lon="3.05772">
        <ele>448.985708</ele>
        <time>2026-02-05T14:27:34.463Z</time>
      </trkpt>
      <trkpt lat="44.0829" lon="3.05767">
        <ele>448.635684</ele>
        <time>2026-02-05T14:27:31.534Z</time>
      </trkpt>
      <trkpt lat="44.08294" lon="3.05768">
        <ele>448.268828</ele>
        <time>2026-02-05T14:27:28.562Z</time>
      </trkpt>
      <trkpt lat="44.08301" lon="3.05775">
        <ele>447.393091</ele>
        <time>2026-02-05T14:27:20.910Z</time>
      </trkpt>
      <trkpt lat="44.08319" lon="3.05797">
        <ele>445.12175</ele>
        <time>2026-02-05T14:27:03.948Z</time>
      </trkpt>
      <trkpt lat="44.08336" lon="3.05836">
        <ele>441.049699</ele>
        <time>2026-02-05T14:26:39.035Z</time>
      </trkpt>
      <trkpt lat="44.08342" lon="3.05863">
        <ele>438.394219</ele>
        <time>2026-02-05T14:26:19.600Z</time>
      </trkpt>
      <trkpt lat="44.08345" lon="3.05897">
        <ele>435.10657</ele>
        <time>2026-02-05T14:25:57.516Z</time>
      </trkpt>
      <trkpt lat="44.08327" lon="3.05942">
        <ele>430.103861</ele>
        <time>2026-02-05T14:25:23.044Z</time>
      </trkpt>
      <trkpt lat="44.08325" lon="3.05951">
        <ele>429.257036</ele>
        <time>2026-02-05T14:25:16.591Z</time>
      </trkpt>
      <trkpt lat="44.08326" lon="3.05961">
        <ele>428.25683</ele>
        <time>2026-02-05T14:25:09.825Z</time>
      </trkpt>
      <trkpt lat="44.08346" lon="3.06019">
        <ele>422.065377</ele>
        <time>2026-02-05T14:24:28.361Z</time>
      </trkpt>
      <trkpt lat="44.08371" lon="3.06052">
        <ele>418.061748</ele>
        <time>2026-02-05T14:23:56.506Z</time>
      </trkpt>
      <trkpt lat="44.08374" lon="3.06063">
        <ele>417.214685</ele>
        <time>2026-02-05T14:23:50.203Z</time>
      </trkpt>
      <trkpt lat="44.08378" lon="3.06072">
        <ele>416.440393</ele>
        <time>2026-02-05T14:23:44.136Z</time>
      </trkpt>
      <trkpt lat="44.08383" lon="3.06104">
        <ele>414.074666</ele>
        <time>2026-02-05T14:23:26.667Z</time>
      </trkpt>
      <trkpt lat="44.08379" lon="3.06175">
        <ele>408.873476</ele>
        <time>2026-02-05T14:22:51.637Z</time>
      </trkpt>
      <trkpt lat="44.08375" lon="3.06197">
        <ele>407.193804</ele>
        <time>2026-02-05T14:22:41.001Z</time>
      </trkpt>
      <trkpt lat="44.08367" lon="3.06248">
        <ele>403.422972</ele>
        <time>2026-02-05T14:22:15.802Z</time>
      </trkpt>
      <trkpt lat="44.08369" lon="3.06264">
        <ele>402.232519</ele>
        <time>2026-02-05T14:22:08.781Z</time>
      </trkpt>
      <trkpt lat="44.08369" lon="3.0627">
        <ele>395.2</ele>
        <extensions>
          <visugpx:TrkExtension xmlns:visugpx="https://www.visugpx.com/editgpx/">
            <visugpx:node>1</visugpx:node>
            </visugpx:TrkExtension>
        </extensions>
      </trkpt>
      <trkpt lat="44.08362" lon="3.06272">
        <ele>395.9</ele>
      </trkpt>
      <trkpt lat="44.08356" lon="3.06273">
        <ele>396</ele>
        <extensions>
          <visugpx:TrkExtension xmlns:visugpx="https://www.visugpx.com/editgpx/">
            <visugpx:node>1</visugpx:node>
            </visugpx:TrkExtension>
        </extensions>
      </trkpt>
      <trkpt lat="44.08344" lon="3.06279">
        <ele>396.1</ele>
        <extensions>
          <visugpx:TrkExtension xmlns:visugpx="https://www.visugpx.com/editgpx/">
            <visugpx:node>2</visugpx:node>
            </visugpx:TrkExtension>
        </extensions>
      </trkpt>
      <trkpt lat="44.08325" lon="3.06289">
        <ele>397</ele>
        <extensions>
          <visugpx:TrkExtension xmlns:visugpx="https://www.visugpx.com/editgpx/">
            <visugpx:node>3</visugpx:node>
            </visugpx:TrkExtension>
        </extensions>
      </trkpt>
      <trkpt lat="44.08316" lon="3.06294">
        <ele>397.4</ele>
        <extensions>
          <visugpx:TrkExtension xmlns:visugpx="https://www.visugpx.com/editgpx/">
            <visugpx:node>4</visugpx:node>
            </visugpx:TrkExtension>
        </extensions>
      </trkpt>
      <trkpt lat="44.08304" lon="3.06297">
        <ele>397.7</ele>
        <extensions>
          <visugpx:TrkExtension xmlns:visugpx="https://www.visugpx.com/editgpx/">
            <visugpx:node>5</visugpx:node>
            </visugpx:TrkExtension>
        </extensions>
      </trkpt>
      <trkpt lat="44.08283" lon="3.063">
        <ele>397.3</ele>
        <extensions>
          <visugpx:TrkExtension xmlns:visugpx="https://www.visugpx.com/editgpx/">
            <visugpx:node>6</visugpx:node>
            </visugpx:TrkExtension>
        </extensions>
      </trkpt>
      <trkpt lat="44.08271" lon="3.06301">
        <ele>397.6</ele>
        <extensions>
          <visugpx:TrkExtension xmlns:visugpx="https://www.visugpx.com/editgpx/">
            <visugpx:node>7</visugpx:node>
            </visugpx:TrkExtension>
        </extensions>
      </trkpt>
      <trkpt lat="44.08258" lon="3.063">
        <ele>398.4</ele>
        <extensions>
          <visugpx:TrkExtension xmlns:visugpx="https://www.visugpx.com/editgpx/">
            <visugpx:node>8</visugpx:node>
            </visugpx:TrkExtension>
        </extensions>
      </trkpt>
      <trkpt lat="44.08248" lon="3.06296">
        <ele>398.8</ele>
        <extensions>
          <visugpx:TrkExtension xmlns:visugpx="https://www.visugpx.com/editgpx/">
            <visugpx:node>9</visugpx:node>
            </visugpx:TrkExtension>
        </extensions>
      </trkpt>
      <trkpt lat="44.08236" lon="3.06284">
        <ele>398.8</ele>
        <extensions>
          <visugpx:TrkExtension xmlns:visugpx="https://www.visugpx.com/editgpx/">
            <visugpx:node>10</visugpx:node>
            </visugpx:TrkExtension>
        </extensions>
      </trkpt>
      <trkpt lat="44.08223" lon="3.06274">
        <ele>399</ele>
        <extensions>
          <visugpx:TrkExtension xmlns:visugpx="https://www.visugpx.com/editgpx/">
            <visugpx:node>11</visugpx:node>
            </visugpx:TrkExtension>
        </extensions>
      </trkpt>
      <trkpt lat="44.08212" lon="3.06263">
        <ele>399.7</ele>
        <extensions>
          <visugpx:TrkExtension xmlns:visugpx="https://www.visugpx.com/editgpx/">
            <visugpx:node>12</visugpx:node>
            </visugpx:TrkExtension>
        </extensions>
      </trkpt>
      <trkpt lat="44.0821" lon="3.06265">
        <ele>399.9</ele>
        <extensions>
          <visugpx:TrkExtension xmlns:visugpx="https://www.visugpx.com/editgpx/">
            <visugpx:node>13</visugpx:node>
            </visugpx:TrkExtension>
        </extensions>
      </trkpt>
      <trkpt lat="44.08221" lon="3.06277">
        <ele>399.1</ele>
        <extensions>
          <visugpx:TrkExtension xmlns:visugpx="https://www.visugpx.com/editgpx/">
            <visugpx:node>14</visugpx:node>
            </visugpx:TrkExtension>
        </extensions>
      </trkpt>
      <trkpt lat="44.08235" lon="3.06288">
        <ele>399.1</ele>
        <extensions>
          <visugpx:TrkExtension xmlns:visugpx="https://www.visugpx.com/editgpx/">
            <visugpx:node>15</visugpx:node>
            </visugpx:TrkExtension>
        </extensions>
      </trkpt>
      <trkpt lat="44.08244" lon="3.06297">
        <ele>399.1</ele>
        <extensions>
          <visugpx:TrkExtension xmlns:visugpx="https://www.visugpx.com/editgpx/">
            <visugpx:node>16</visugpx:node>
            </visugpx:TrkExtension>
        </extensions>
      </trkpt>
      <trkpt lat="44.08254" lon="3.06304">
        <ele>398.7</ele>
        <extensions>
          <visugpx:TrkExtension xmlns:visugpx="https://www.visugpx.com/editgpx/">
            <visugpx:node>17</visugpx:node>
            </visugpx:TrkExtension>
        </extensions>
      </trkpt>
      <trkpt lat="44.08271" lon="3.06307">
        <ele>397.8</ele>
        <extensions>
          <visugpx:TrkExtension xmlns:visugpx="https://www.visugpx.com/editgpx/">
            <visugpx:node>18</visugpx:node>
            </visugpx:TrkExtension>
        </extensions>
      </trkpt>
      <trkpt lat="44.08299" lon="3.06303">
        <ele>397.7</ele>
        <extensions>
          <visugpx:TrkExtension xmlns:visugpx="https://www.visugpx.com/editgpx/">
            <visugpx:node>19</visugpx:node>
            </visugpx:TrkExtension>
        </extensions>
      </trkpt>
      <trkpt lat="44.08322" lon="3.06297">
        <ele>397.5</ele>
        <extensions>
          <visugpx:TrkExtension xmlns:visugpx="https://www.visugpx.com/editgpx/">
            <visugpx:node>20</visugpx:node>
            </visugpx:TrkExtension>
        </extensions>
      </trkpt>
      <trkpt lat="44.08351" lon="3.06281">
        <ele>396.2</ele>
        <extensions>
          <visugpx:TrkExtension xmlns:visugpx="https://www.visugpx.com/editgpx/">
            <visugpx:node>21</visugpx:node>
            </visugpx:TrkExtension>
        </extensions>
      </trkpt>
      <trkpt lat="44.08367" lon="3.06276">
        <ele>395.6</ele>
        <extensions>
          <visugpx:TrkExtension xmlns:visugpx="https://www.visugpx.com/editgpx/">
            <visugpx:node>22</visugpx:node>
            </visugpx:TrkExtension>
        </extensions>
      </trkpt>
      <trkpt lat="44.08373" lon="3.06279">
        <ele>395.2</ele>
      </trkpt>
      <trkpt lat="44.08379" lon="3.06279">
        <ele>394.8</ele>
        <extensions>
          <visugpx:TrkExtension xmlns:visugpx="https://www.visugpx.com/editgpx/">
            <visugpx:node>1</visugpx:node>
            </visugpx:TrkExtension>
        </extensions>
      </trkpt>
      <trkpt lat="44.08392" lon="3.0628">
        <ele>394.1</ele>
      </trkpt>
      <trkpt lat="44.08404" lon="3.06277">
        <ele>393.3</ele>
        <extensions>
          <visugpx:TrkExtension xmlns:visugpx="https://www.visugpx.com/editgpx/">
            <visugpx:node>1</visugpx:node>
            </visugpx:TrkExtension>
        </extensions>
      </trkpt>
      <trkpt lat="44.08416" lon="3.06275">
        <ele>392.6</ele>
        <extensions>
          <visugpx:TrkExtension xmlns:visugpx="https://www.visugpx.com/editgpx/">
            <visugpx:node>2</visugpx:node>
            </visugpx:TrkExtension>
        </extensions>
      </trkpt>
      <trkpt lat="44.08424" lon="3.06276">
        <ele>392.3</ele>
        <extensions>
          <visugpx:TrkExtension xmlns:visugpx="https://www.visugpx.com/editgpx/">
            <visugpx:node>3</visugpx:node>
            </visugpx:TrkExtension>
        </extensions>
      </trkpt>
      <trkpt lat="44.08424" lon="3.06267">
        <ele>390.8</ele>
        <extensions>
          <visugpx:TrkExtension xmlns:visugpx="https://www.visugpx.com/editgpx/">
            <visugpx:node>4</visugpx:node>
            </visugpx:TrkExtension>
        </extensions>
      </trkpt>
      <trkpt lat="44.08428" lon="3.0626">
        <ele>389.2</ele>
        <extensions>
          <visugpx:TrkExtension xmlns:visugpx="https://www.visugpx.com/editgpx/">
            <visugpx:node>5</visugpx:node>
            </visugpx:TrkExtension>
        </extensions>
      </trkpt>
      <trkpt lat="44.08445" lon="3.06257">
        <ele>387.4</ele>
        <extensions>
          <visugpx:TrkExtension xmlns:visugpx="https://www.visugpx.com/editgpx/">
            <visugpx:node>6</visugpx:node>
            </visugpx:TrkExtension>
        </extensions>
      </trkpt>
      <trkpt lat="44.08459" lon="3.06257">
        <ele>386.3</ele>
        <extensions>
          <visugpx:TrkExtension xmlns:visugpx="https://www.visugpx.com/editgpx/">
            <visugpx:node>7</visugpx:node>
            </visugpx:TrkExtension>
        </extensions>
      </trkpt>
      <trkpt lat="44.08486" lon="3.06269">
        <ele>385.2</ele>
        <extensions>
          <visugpx:TrkExtension xmlns:visugpx="https://www.visugpx.com/editgpx/">
            <visugpx:node>8</visugpx:node>
            </visugpx:TrkExtension>
        </extensions>
      </trkpt>
      <trkpt lat="44.08494" lon="3.0626">
        <ele>383.6</ele>
        <extensions>
          <visugpx:TrkExtension xmlns:visugpx="https://www.visugpx.com/editgpx/">
            <visugpx:node>9</visugpx:node>
            </visugpx:TrkExtension>
        </extensions>
      </trkpt>
      <trkpt lat="44.08491" lon="3.06244">
        <ele>382.5</ele>
        <extensions>
          <visugpx:TrkExtension xmlns:visugpx="https://www.visugpx.com/editgpx/">
            <visugpx:node>10</visugpx:node>
            </visugpx:TrkExtension>
        </extensions>
      </trkpt>
      <trkpt lat="44.08502" lon="3.06212">
        <ele>378.7</ele>
        <extensions>
          <visugpx:TrkExtension xmlns:visugpx="https://www.visugpx.com/editgpx/">
            <visugpx:node>11</visugpx:node>
            </visugpx:TrkExtension>
        </extensions>
      </trkpt>
      <trkpt lat="44.08521" lon="3.06184">
        <ele>378.3</ele>
        <extensions>
          <visugpx:TrkExtension xmlns:visugpx="https://www.visugpx.com/editgpx/">
            <visugpx:node>12</visugpx:node>
            </visugpx:TrkExtension>
        </extensions>
      </trkpt>
      <trkpt lat="44.0853" lon="3.06171">
        <ele>378.5</ele>
        <extensions>
          <visugpx:TrkExtension xmlns:visugpx="https://www.visugpx.com/editgpx/">
            <visugpx:node>13</visugpx:node>
            </visugpx:TrkExtension>
        </extensions>
      </trkpt>
    </trkseg>
  </trk>
</gpx>